<?xml version="1.0" encoding="UTF-8" standalone="no" ?>
<gpx xmlns="http://www.topografix.com/GPX/1/1" xmlns:xsi="http://www.w3.org/2001/XMLSchema-instance" xsi:schemaLocation="http://www.topografix.com/GPX/1/1 http://www.topografix.com/GPX/1/1/gpx.xsd" version="1.1" creator="VisuGPX - https://www.visugpx.com">
  <metadata>
    <name>Beauvezer</name>
  </metadata>
  <trk>
    <name><![CDATA[pisse en l air]]></name>
    <trkseg>
      <trkpt lat="44.09707" lon="6.55487">
        <ele>1161.409912</ele>
        <time>2009-08-14T07:45:38Z</time>
      </trkpt>
      <trkpt lat="44.0968" lon="6.55464">
        <ele>1160.929199</ele>
        <time>2009-08-14T07:46:04Z</time>
      </trkpt>
      <trkpt lat="44.0967" lon="6.55494">
        <ele>1158.525879</ele>
        <time>2009-08-14T07:46:28Z</time>
      </trkpt>
      <trkpt lat="44.09667" lon="6.55535">
        <ele>1156.122559</ele>
        <time>2009-08-14T07:46:38Z</time>
      </trkpt>
      <trkpt lat="44.09683" lon="6.55569">
        <ele>1156.603271</ele>
        <time>2009-08-14T07:46:49Z</time>
      </trkpt>
      <trkpt lat="44.09693" lon="6.55606">
        <ele>1156.122559</ele>
        <time>2009-08-14T07:46:59Z</time>
      </trkpt>
      <trkpt lat="44.09699" lon="6.55645">
        <ele>1154.200195</ele>
        <time>2009-08-14T07:47:07Z</time>
      </trkpt>
      <trkpt lat="44.09698" lon="6.5569">
        <ele>1152.277344</ele>
        <time>2009-08-14T07:47:14Z</time>
      </trkpt>
      <trkpt lat="44.09698" lon="6.55734">
        <ele>1149.874268</ele>
        <time>2009-08-14T07:47:20Z</time>
      </trkpt>
      <trkpt lat="44.09698" lon="6.55774">
        <ele>1147.951416</ele>
        <time>2009-08-14T07:47:25Z</time>
      </trkpt>
      <trkpt lat="44.09696" lon="6.5582">
        <ele>1146.509521</ele>
        <time>2009-08-14T07:47:30Z</time>
      </trkpt>
      <trkpt lat="44.09691" lon="6.55864">
        <ele>1145.067383</ele>
        <time>2009-08-14T07:47:34Z</time>
      </trkpt>
      <trkpt lat="44.09685" lon="6.5591">
        <ele>1142.664307</ele>
        <time>2009-08-14T07:47:38Z</time>
      </trkpt>
      <trkpt lat="44.0968" lon="6.55953">
        <ele>1139.780273</ele>
        <time>2009-08-14T07:47:42Z</time>
      </trkpt>
      <trkpt lat="44.09681" lon="6.56">
        <ele>1138.338379</ele>
        <time>2009-08-14T07:47:46Z</time>
      </trkpt>
      <trkpt lat="44.09692" lon="6.56042">
        <ele>1137.857666</ele>
        <time>2009-08-14T07:47:50Z</time>
      </trkpt>
      <trkpt lat="44.0971" lon="6.56079">
        <ele>1137.857666</ele>
        <time>2009-08-14T07:47:55Z</time>
      </trkpt>
      <trkpt lat="44.09728" lon="6.56108">
        <ele>1137.376953</ele>
        <time>2009-08-14T07:48:00Z</time>
      </trkpt>
      <trkpt lat="44.09748" lon="6.56143">
        <ele>1137.376953</ele>
        <time>2009-08-14T07:48:06Z</time>
      </trkpt>
      <trkpt lat="44.09766" lon="6.56173">
        <ele>1137.857666</ele>
        <time>2009-08-14T07:48:12Z</time>
      </trkpt>
      <trkpt lat="44.09783" lon="6.56203">
        <ele>1137.857666</ele>
        <time>2009-08-14T07:48:19Z</time>
      </trkpt>
      <trkpt lat="44.098" lon="6.56232">
        <ele>1139.299561</ele>
        <time>2009-08-14T07:48:28Z</time>
      </trkpt>
      <trkpt lat="44.09823" lon="6.56258">
        <ele>1138.338379</ele>
        <time>2009-08-14T07:48:37Z</time>
      </trkpt>
      <trkpt lat="44.09845" lon="6.56281">
        <ele>1137.857666</ele>
        <time>2009-08-14T07:48:45Z</time>
      </trkpt>
      <trkpt lat="44.09869" lon="6.56305">
        <ele>1137.857666</ele>
        <time>2009-08-14T07:48:53Z</time>
      </trkpt>
      <trkpt lat="44.09892" lon="6.56328">
        <ele>1137.376953</ele>
        <time>2009-08-14T07:49:02Z</time>
      </trkpt>
      <trkpt lat="44.09906" lon="6.56364">
        <ele>1134.973877</ele>
        <time>2009-08-14T07:49:10Z</time>
      </trkpt>
      <trkpt lat="44.09916" lon="6.56403">
        <ele>1133.531738</ele>
        <time>2009-08-14T07:49:16Z</time>
      </trkpt>
      <trkpt lat="44.09926" lon="6.56443">
        <ele>1131.608887</ele>
        <time>2009-08-14T07:49:22Z</time>
      </trkpt>
      <trkpt lat="44.09933" lon="6.56483">
        <ele>1129.686279</ele>
        <time>2009-08-14T07:49:28Z</time>
      </trkpt>
      <trkpt lat="44.09939" lon="6.56522">
        <ele>1129.205566</ele>
        <time>2009-08-14T07:49:35Z</time>
      </trkpt>
      <trkpt lat="44.0995" lon="6.56559">
        <ele>1128.244385</ele>
        <time>2009-08-14T07:49:44Z</time>
      </trkpt>
      <trkpt lat="44.09961" lon="6.56598">
        <ele>1126.80249</ele>
        <time>2009-08-14T07:49:54Z</time>
      </trkpt>
      <trkpt lat="44.09967" lon="6.56635">
        <ele>1124.879883</ele>
        <time>2009-08-14T07:50:01Z</time>
      </trkpt>
      <trkpt lat="44.09975" lon="6.56674">
        <ele>1121.99585</ele>
        <time>2009-08-14T07:50:08Z</time>
      </trkpt>
      <trkpt lat="44.09992" lon="6.56703">
        <ele>1118.150635</ele>
        <time>2009-08-14T07:50:16Z</time>
      </trkpt>
      <trkpt lat="44.09992" lon="6.56735">
        <ele>1110.459961</ele>
        <time>2009-08-14T07:50:36Z</time>
      </trkpt>
      <trkpt lat="44.09987" lon="6.56763">
        <ele>1109.498779</ele>
        <time>2009-08-14T07:50:43Z</time>
      </trkpt>
      <trkpt lat="44.0999" lon="6.56797">
        <ele>1108.056885</ele>
        <time>2009-08-14T07:50:53Z</time>
      </trkpt>
      <trkpt lat="44.09996" lon="6.56833">
        <ele>1103.250244</ele>
        <time>2009-08-14T07:51:06Z</time>
      </trkpt>
      <trkpt lat="44.10018" lon="6.56863">
        <ele>1104.692139</ele>
        <time>2009-08-14T07:51:15Z</time>
      </trkpt>
      <trkpt lat="44.10043" lon="6.56885">
        <ele>1104.21167</ele>
        <time>2009-08-14T07:51:23Z</time>
      </trkpt>
      <trkpt lat="44.10073" lon="6.56895">
        <ele>1105.172852</ele>
        <time>2009-08-14T07:51:31Z</time>
      </trkpt>
      <trkpt lat="44.10102" lon="6.56901">
        <ele>1104.21167</ele>
        <time>2009-08-14T07:51:39Z</time>
      </trkpt>
      <trkpt lat="44.10132" lon="6.56906">
        <ele>1104.21167</ele>
        <time>2009-08-14T07:51:48Z</time>
      </trkpt>
      <trkpt lat="44.1016" lon="6.56908">
        <ele>1104.21167</ele>
        <time>2009-08-14T07:51:57Z</time>
      </trkpt>
      <trkpt lat="44.10187" lon="6.56906">
        <ele>1104.692139</ele>
        <time>2009-08-14T07:52:05Z</time>
      </trkpt>
      <trkpt lat="44.10217" lon="6.56903">
        <ele>1105.172852</ele>
        <time>2009-08-14T07:52:14Z</time>
      </trkpt>
      <trkpt lat="44.10245" lon="6.56899">
        <ele>1105.172852</ele>
        <time>2009-08-14T07:52:22Z</time>
      </trkpt>
      <trkpt lat="44.10275" lon="6.569">
        <ele>1105.172852</ele>
        <time>2009-08-14T07:52:30Z</time>
      </trkpt>
      <trkpt lat="44.103" lon="6.56916">
        <ele>1105.172852</ele>
        <time>2009-08-14T07:52:38Z</time>
      </trkpt>
      <trkpt lat="44.10324" lon="6.56938">
        <ele>1105.172852</ele>
        <time>2009-08-14T07:52:46Z</time>
      </trkpt>
      <trkpt lat="44.10346" lon="6.56961">
        <ele>1105.172852</ele>
        <time>2009-08-14T07:52:54Z</time>
      </trkpt>
      <trkpt lat="44.10367" lon="6.5699">
        <ele>1105.653564</ele>
        <time>2009-08-14T07:53:02Z</time>
      </trkpt>
      <trkpt lat="44.10387" lon="6.57018">
        <ele>1105.653564</ele>
        <time>2009-08-14T07:53:10Z</time>
      </trkpt>
      <trkpt lat="44.10407" lon="6.57046">
        <ele>1106.134033</ele>
        <time>2009-08-14T07:53:18Z</time>
      </trkpt>
      <trkpt lat="44.10427" lon="6.57074">
        <ele>1105.653564</ele>
        <time>2009-08-14T07:53:26Z</time>
      </trkpt>
      <trkpt lat="44.10449" lon="6.571">
        <ele>1106.134033</ele>
        <time>2009-08-14T07:53:34Z</time>
      </trkpt>
      <trkpt lat="44.10474" lon="6.57122">
        <ele>1105.653564</ele>
        <time>2009-08-14T07:53:42Z</time>
      </trkpt>
      <trkpt lat="44.10496" lon="6.57146">
        <ele>1106.614746</ele>
        <time>2009-08-14T07:53:50Z</time>
      </trkpt>
      <trkpt lat="44.10519" lon="6.57171">
        <ele>1106.134033</ele>
        <time>2009-08-14T07:53:58Z</time>
      </trkpt>
      <trkpt lat="44.10542" lon="6.57196">
        <ele>1106.134033</ele>
        <time>2009-08-14T07:54:06Z</time>
      </trkpt>
      <trkpt lat="44.10565" lon="6.57222">
        <ele>1106.134033</ele>
        <time>2009-08-14T07:54:14Z</time>
      </trkpt>
      <trkpt lat="44.1059" lon="6.57247">
        <ele>1106.134033</ele>
        <time>2009-08-14T07:54:22Z</time>
      </trkpt>
      <trkpt lat="44.10613" lon="6.57273">
        <ele>1106.134033</ele>
        <time>2009-08-14T07:54:30Z</time>
      </trkpt>
      <trkpt lat="44.10635" lon="6.57296">
        <ele>1106.614746</ele>
        <time>2009-08-14T07:54:37Z</time>
      </trkpt>
      <trkpt lat="44.10658" lon="6.57324">
        <ele>1105.653564</ele>
        <time>2009-08-14T07:54:45Z</time>
      </trkpt>
      <trkpt lat="44.10681" lon="6.57351">
        <ele>1105.653564</ele>
        <time>2009-08-14T07:54:53Z</time>
      </trkpt>
      <trkpt lat="44.10703" lon="6.5738">
        <ele>1106.134033</ele>
        <time>2009-08-14T07:55:01Z</time>
      </trkpt>
      <trkpt lat="44.10724" lon="6.57408">
        <ele>1106.614746</ele>
        <time>2009-08-14T07:55:09Z</time>
      </trkpt>
      <trkpt lat="44.10745" lon="6.57433">
        <ele>1106.614746</ele>
        <time>2009-08-14T07:55:17Z</time>
      </trkpt>
      <trkpt lat="44.10766" lon="6.57459">
        <ele>1106.614746</ele>
        <time>2009-08-14T07:55:25Z</time>
      </trkpt>
      <trkpt lat="44.10786" lon="6.57486">
        <ele>1107.095459</ele>
        <time>2009-08-14T07:55:33Z</time>
      </trkpt>
      <trkpt lat="44.10803" lon="6.57517">
        <ele>1107.576172</ele>
        <time>2009-08-14T07:55:41Z</time>
      </trkpt>
      <trkpt lat="44.10826" lon="6.57544">
        <ele>1108.056885</ele>
        <time>2009-08-14T07:55:50Z</time>
      </trkpt>
      <trkpt lat="44.10846" lon="6.57575">
        <ele>1108.056885</ele>
        <time>2009-08-14T07:55:59Z</time>
      </trkpt>
      <trkpt lat="44.10864" lon="6.57609">
        <ele>1109.018066</ele>
        <time>2009-08-14T07:56:08Z</time>
      </trkpt>
      <trkpt lat="44.1088" lon="6.57643">
        <ele>1109.498779</ele>
        <time>2009-08-14T07:56:17Z</time>
      </trkpt>
      <trkpt lat="44.10898" lon="6.57675">
        <ele>1109.979248</ele>
        <time>2009-08-14T07:56:26Z</time>
      </trkpt>
      <trkpt lat="44.10916" lon="6.57709">
        <ele>1109.979248</ele>
        <time>2009-08-14T07:56:35Z</time>
      </trkpt>
      <trkpt lat="44.10934" lon="6.57742">
        <ele>1110.459961</ele>
        <time>2009-08-14T07:56:44Z</time>
      </trkpt>
      <trkpt lat="44.10951" lon="6.57771">
        <ele>1110.940674</ele>
        <time>2009-08-14T07:56:52Z</time>
      </trkpt>
      <trkpt lat="44.10968" lon="6.57801">
        <ele>1111.421387</ele>
        <time>2009-08-14T07:57:00Z</time>
      </trkpt>
      <trkpt lat="44.10989" lon="6.57831">
        <ele>1111.9021</ele>
        <time>2009-08-14T07:57:09Z</time>
      </trkpt>
      <trkpt lat="44.11012" lon="6.57859">
        <ele>1112.382568</ele>
        <time>2009-08-14T07:57:18Z</time>
      </trkpt>
      <trkpt lat="44.11037" lon="6.57882">
        <ele>1112.382568</ele>
        <time>2009-08-14T07:57:27Z</time>
      </trkpt>
      <trkpt lat="44.11065" lon="6.57901">
        <ele>1112.863281</ele>
        <time>2009-08-14T07:57:36Z</time>
      </trkpt>
      <trkpt lat="44.11094" lon="6.57915">
        <ele>1113.343994</ele>
        <time>2009-08-14T07:57:45Z</time>
      </trkpt>
      <trkpt lat="44.11123" lon="6.57926">
        <ele>1113.824463</ele>
        <time>2009-08-14T07:57:54Z</time>
      </trkpt>
      <trkpt lat="44.11153" lon="6.57932">
        <ele>1114.305176</ele>
        <time>2009-08-14T07:58:03Z</time>
      </trkpt>
      <trkpt lat="44.11183" lon="6.57934">
        <ele>1114.785889</ele>
        <time>2009-08-14T07:58:12Z</time>
      </trkpt>
      <trkpt lat="44.11212" lon="6.57935">
        <ele>1114.785889</ele>
        <time>2009-08-14T07:58:21Z</time>
      </trkpt>
      <trkpt lat="44.11242" lon="6.57937">
        <ele>1114.785889</ele>
        <time>2009-08-14T07:58:30Z</time>
      </trkpt>
      <trkpt lat="44.11272" lon="6.57938">
        <ele>1115.266602</ele>
        <time>2009-08-14T07:58:39Z</time>
      </trkpt>
      <trkpt lat="44.113" lon="6.57942">
        <ele>1116.228027</ele>
        <time>2009-08-14T07:58:49Z</time>
      </trkpt>
      <trkpt lat="44.11303" lon="6.57979">
        <ele>1116.70874</ele>
        <time>2009-08-14T07:59:04Z</time>
      </trkpt>
      <trkpt lat="44.11304" lon="6.58017">
        <ele>1116.228027</ele>
        <time>2009-08-14T07:59:17Z</time>
      </trkpt>
      <trkpt lat="44.11305" lon="6.58055">
        <ele>1116.70874</ele>
        <time>2009-08-14T07:59:30Z</time>
      </trkpt>
      <trkpt lat="44.11306" lon="6.58094">
        <ele>1116.228027</ele>
        <time>2009-08-14T07:59:43Z</time>
      </trkpt>
      <trkpt lat="44.11286" lon="6.58111">
        <ele>1117.189453</ele>
        <time>2009-08-14T07:59:56Z</time>
      </trkpt>
      <trkpt lat="44.11269" lon="6.58136">
        <ele>1119.592773</ele>
        <time>2009-08-14T08:00:10Z</time>
      </trkpt>
      <trkpt lat="44.11295" lon="6.58139">
        <ele>1121.515137</ele>
        <time>2009-08-14T08:00:26Z</time>
      </trkpt>
      <trkpt lat="44.11322" lon="6.58145">
        <ele>1122.957275</ele>
        <time>2009-08-14T08:00:43Z</time>
      </trkpt>
      <trkpt lat="44.11347" lon="6.5816">
        <ele>1124.879883</ele>
        <time>2009-08-14T08:01:00Z</time>
      </trkpt>
      <trkpt lat="44.11369" lon="6.58186">
        <ele>1127.283203</ele>
        <time>2009-08-14T08:01:17Z</time>
      </trkpt>
      <trkpt lat="44.11389" lon="6.58214">
        <ele>1128.725098</ele>
        <time>2009-08-14T08:01:34Z</time>
      </trkpt>
      <trkpt lat="44.11406" lon="6.58243">
        <ele>1131.608887</ele>
        <time>2009-08-14T08:01:51Z</time>
      </trkpt>
      <trkpt lat="44.11417" lon="6.58281">
        <ele>1130.647705</ele>
        <time>2009-08-14T08:02:04Z</time>
      </trkpt>
      <trkpt lat="44.11428" lon="6.58315">
        <ele>1132.089844</ele>
        <time>2009-08-14T08:02:18Z</time>
      </trkpt>
      <trkpt lat="44.11456" lon="6.58316">
        <ele>1130.166992</ele>
        <time>2009-08-14T08:02:27Z</time>
      </trkpt>
      <trkpt lat="44.11481" lon="6.58303">
        <ele>1130.166992</ele>
        <time>2009-08-14T08:02:34Z</time>
      </trkpt>
      <trkpt lat="44.11508" lon="6.58308">
        <ele>1131.128418</ele>
        <time>2009-08-14T08:02:48Z</time>
      </trkpt>
      <trkpt lat="44.11535" lon="6.58321">
        <ele>1131.128418</ele>
        <time>2009-08-14T08:03:01Z</time>
      </trkpt>
      <trkpt lat="44.11556" lon="6.58346">
        <ele>1131.608887</ele>
        <time>2009-08-14T08:03:12Z</time>
      </trkpt>
      <trkpt lat="44.11578" lon="6.5837">
        <ele>1131.128418</ele>
        <time>2009-08-14T08:03:23Z</time>
      </trkpt>
      <trkpt lat="44.11592" lon="6.58403">
        <ele>1132.089844</ele>
        <time>2009-08-14T08:03:35Z</time>
      </trkpt>
      <trkpt lat="44.11601" lon="6.58441">
        <ele>1133.531738</ele>
        <time>2009-08-14T08:03:49Z</time>
      </trkpt>
      <trkpt lat="44.1162" lon="6.58463">
        <ele>1136.415771</ele>
        <time>2009-08-14T08:04:06Z</time>
      </trkpt>
      <trkpt lat="44.11648" lon="6.58457">
        <ele>1139.780273</ele>
        <time>2009-08-14T08:04:24Z</time>
      </trkpt>
      <trkpt lat="44.11642" lon="6.5848">
        <ele>1141.222168</ele>
        <time>2009-08-14T08:04:42Z</time>
      </trkpt>
      <trkpt lat="44.1162" lon="6.585">
        <ele>1144.58667</ele>
        <time>2009-08-14T08:05:00Z</time>
      </trkpt>
      <trkpt lat="44.11592" lon="6.58518">
        <ele>1148.912842</ele>
        <time>2009-08-14T08:05:22Z</time>
      </trkpt>
      <trkpt lat="44.11567" lon="6.5854">
        <ele>1152.277344</ele>
        <time>2009-08-14T08:05:41Z</time>
      </trkpt>
      <trkpt lat="44.11551" lon="6.58565">
        <ele>1155.64209</ele>
        <time>2009-08-14T08:08:17Z</time>
      </trkpt>
      <trkpt lat="44.11527" lon="6.58591">
        <ele>1159.967773</ele>
        <time>2009-08-14T08:08:36Z</time>
      </trkpt>
      <trkpt lat="44.11506" lon="6.58617">
        <ele>1162.851807</ele>
        <time>2009-08-14T08:08:55Z</time>
      </trkpt>
      <trkpt lat="44.11483" lon="6.5864">
        <ele>1166.697266</ele>
        <time>2009-08-14T08:09:16Z</time>
      </trkpt>
      <trkpt lat="44.1146" lon="6.58661">
        <ele>1170.061768</ele>
        <time>2009-08-14T08:09:38Z</time>
      </trkpt>
      <trkpt lat="44.11439" lon="6.58687">
        <ele>1173.426514</ele>
        <time>2009-08-14T08:09:59Z</time>
      </trkpt>
      <trkpt lat="44.11422" lon="6.58717">
        <ele>1177.271729</ele>
        <time>2009-08-14T08:10:20Z</time>
      </trkpt>
      <trkpt lat="44.11403" lon="6.58747">
        <ele>1181.117188</ele>
        <time>2009-08-14T08:10:42Z</time>
      </trkpt>
      <trkpt lat="44.11383" lon="6.58772">
        <ele>1184.481689</ele>
        <time>2009-08-14T08:11:02Z</time>
      </trkpt>
      <trkpt lat="44.11362" lon="6.588">
        <ele>1188.807617</ele>
        <time>2009-08-14T08:11:24Z</time>
      </trkpt>
      <trkpt lat="44.11344" lon="6.58827">
        <ele>1191.691406</ele>
        <time>2009-08-14T08:11:45Z</time>
      </trkpt>
      <trkpt lat="44.11324" lon="6.58853">
        <ele>1193.133301</ele>
        <time>2009-08-14T08:12:02Z</time>
      </trkpt>
      <trkpt lat="44.11303" lon="6.58878">
        <ele>1196.017578</ele>
        <time>2009-08-14T08:12:21Z</time>
      </trkpt>
      <trkpt lat="44.11301" lon="6.58904">
        <ele>1198.901367</ele>
        <time>2009-08-14T08:12:41Z</time>
      </trkpt>
      <trkpt lat="44.11325" lon="6.58883">
        <ele>1200.823975</ele>
        <time>2009-08-14T08:12:59Z</time>
      </trkpt>
      <trkpt lat="44.11351" lon="6.5887">
        <ele>1204.188721</ele>
        <time>2009-08-14T08:13:18Z</time>
      </trkpt>
      <trkpt lat="44.11378" lon="6.58858">
        <ele>1206.111084</ele>
        <time>2009-08-14T08:13:36Z</time>
      </trkpt>
      <trkpt lat="44.11404" lon="6.58845">
        <ele>1208.995117</ele>
        <time>2009-08-14T08:13:55Z</time>
      </trkpt>
      <trkpt lat="44.11431" lon="6.58833">
        <ele>1212.359863</ele>
        <time>2009-08-14T08:14:14Z</time>
      </trkpt>
      <trkpt lat="44.11457" lon="6.58818">
        <ele>1214.763184</ele>
        <time>2009-08-14T08:14:34Z</time>
      </trkpt>
      <trkpt lat="44.1148" lon="6.58797">
        <ele>1218.608398</ele>
        <time>2009-08-14T08:14:54Z</time>
      </trkpt>
      <trkpt lat="44.11503" lon="6.58777">
        <ele>1221.011719</ele>
        <time>2009-08-14T08:15:14Z</time>
      </trkpt>
      <trkpt lat="44.11528" lon="6.58762">
        <ele>1224.376221</ele>
        <time>2009-08-14T08:15:34Z</time>
      </trkpt>
      <trkpt lat="44.11555" lon="6.58754">
        <ele>1227.260254</ele>
        <time>2009-08-14T08:15:53Z</time>
      </trkpt>
      <trkpt lat="44.11583" lon="6.58751">
        <ele>1229.182861</ele>
        <time>2009-08-14T08:16:12Z</time>
      </trkpt>
      <trkpt lat="44.11611" lon="6.58755">
        <ele>1232.547607</ele>
        <time>2009-08-14T08:16:31Z</time>
      </trkpt>
      <trkpt lat="44.11634" lon="6.58772">
        <ele>1234.470215</ele>
        <time>2009-08-14T08:16:51Z</time>
      </trkpt>
      <trkpt lat="44.11661" lon="6.58793">
        <ele>1239.276611</ele>
        <time>2009-08-14T08:17:13Z</time>
      </trkpt>
      <trkpt lat="44.11677" lon="6.5882">
        <ele>1242.160645</ele>
        <time>2009-08-14T08:17:33Z</time>
      </trkpt>
      <trkpt lat="44.11651" lon="6.58814">
        <ele>1246.006104</ele>
        <time>2009-08-14T08:17:52Z</time>
      </trkpt>
      <trkpt lat="44.11623" lon="6.5882">
        <ele>1248.889893</ele>
        <time>2009-08-14T08:18:12Z</time>
      </trkpt>
      <trkpt lat="44.1158" lon="6.58837">
        <ele>1256.099609</ele>
        <time>2009-08-14T08:18:53Z</time>
      </trkpt>
      <trkpt lat="44.11552" lon="6.58853">
        <ele>1259.944824</ele>
        <time>2009-08-14T08:19:16Z</time>
      </trkpt>
      <trkpt lat="44.11529" lon="6.58881">
        <ele>1262.829102</ele>
        <time>2009-08-14T08:19:38Z</time>
      </trkpt>
      <trkpt lat="44.1151" lon="6.58911">
        <ele>1266.193604</ele>
        <time>2009-08-14T08:19:58Z</time>
      </trkpt>
      <trkpt lat="44.11496" lon="6.58946">
        <ele>1269.077637</ele>
        <time>2009-08-14T08:20:19Z</time>
      </trkpt>
      <trkpt lat="44.11482" lon="6.5898">
        <ele>1272.442139</ele>
        <time>2009-08-14T08:20:40Z</time>
      </trkpt>
      <trkpt lat="44.11464" lon="6.59012">
        <ele>1275.806641</ele>
        <time>2009-08-14T08:21:00Z</time>
      </trkpt>
      <trkpt lat="44.11449" lon="6.59043">
        <ele>1278.210205</ele>
        <time>2009-08-14T08:21:18Z</time>
      </trkpt>
      <trkpt lat="44.11435" lon="6.59075">
        <ele>1279.6521</ele>
        <time>2009-08-14T08:21:35Z</time>
      </trkpt>
      <trkpt lat="44.11422" lon="6.59107">
        <ele>1281.574707</ele>
        <time>2009-08-14T08:21:51Z</time>
      </trkpt>
      <trkpt lat="44.11407" lon="6.5914">
        <ele>1283.978027</ele>
        <time>2009-08-14T08:22:07Z</time>
      </trkpt>
      <trkpt lat="44.1139" lon="6.5917">
        <ele>1286.861816</ele>
        <time>2009-08-14T08:22:24Z</time>
      </trkpt>
      <trkpt lat="44.11373" lon="6.592">
        <ele>1289.74585</ele>
        <time>2009-08-14T08:22:41Z</time>
      </trkpt>
      <trkpt lat="44.11362" lon="6.59235">
        <ele>1292.149414</ele>
        <time>2009-08-14T08:22:59Z</time>
      </trkpt>
      <trkpt lat="44.11358" lon="6.59273">
        <ele>1295.033203</ele>
        <time>2009-08-14T08:23:17Z</time>
      </trkpt>
      <trkpt lat="44.11357" lon="6.5931">
        <ele>1296.955811</ele>
        <time>2009-08-14T08:23:33Z</time>
      </trkpt>
      <trkpt lat="44.11353" lon="6.59347">
        <ele>1299.359131</ele>
        <time>2009-08-14T08:23:50Z</time>
      </trkpt>
      <trkpt lat="44.11342" lon="6.59384">
        <ele>1302.24292</ele>
        <time>2009-08-14T08:24:07Z</time>
      </trkpt>
      <trkpt lat="44.11329" lon="6.59418">
        <ele>1304.165771</ele>
        <time>2009-08-14T08:24:24Z</time>
      </trkpt>
      <trkpt lat="44.11322" lon="6.59455">
        <ele>1306.568848</ele>
        <time>2009-08-14T08:24:41Z</time>
      </trkpt>
      <trkpt lat="44.11315" lon="6.59492">
        <ele>1308.491699</ele>
        <time>2009-08-14T08:24:59Z</time>
      </trkpt>
      <trkpt lat="44.11308" lon="6.59527">
        <ele>1310.89502</ele>
        <time>2009-08-14T08:25:18Z</time>
      </trkpt>
      <trkpt lat="44.11325" lon="6.59506">
        <ele>1312.336914</ele>
        <time>2009-08-14T08:25:36Z</time>
      </trkpt>
      <trkpt lat="44.11337" lon="6.59471">
        <ele>1314.259521</ele>
        <time>2009-08-14T08:25:51Z</time>
      </trkpt>
      <trkpt lat="44.11353" lon="6.59441">
        <ele>1317.143555</ele>
        <time>2009-08-14T08:26:08Z</time>
      </trkpt>
      <trkpt lat="44.1137" lon="6.59411">
        <ele>1318.104736</ele>
        <time>2009-08-14T08:26:23Z</time>
      </trkpt>
      <trkpt lat="44.11385" lon="6.59378">
        <ele>1319.066162</ele>
        <time>2009-08-14T08:26:36Z</time>
      </trkpt>
      <trkpt lat="44.11401" lon="6.59347">
        <ele>1320.98877</ele>
        <time>2009-08-14T08:26:50Z</time>
      </trkpt>
      <trkpt lat="44.11422" lon="6.5932">
        <ele>1323.872559</ele>
        <time>2009-08-14T08:27:08Z</time>
      </trkpt>
      <trkpt lat="44.1144" lon="6.59289">
        <ele>1326.276123</ele>
        <time>2009-08-14T08:27:26Z</time>
      </trkpt>
      <trkpt lat="44.11453" lon="6.59255">
        <ele>1328.679443</ele>
        <time>2009-08-14T08:27:43Z</time>
      </trkpt>
      <trkpt lat="44.1147" lon="6.59224">
        <ele>1330.121338</ele>
        <time>2009-08-14T08:28:00Z</time>
      </trkpt>
      <trkpt lat="44.11494" lon="6.59205">
        <ele>1332.043945</ele>
        <time>2009-08-14T08:28:18Z</time>
      </trkpt>
      <trkpt lat="44.1152" lon="6.59188">
        <ele>1334.447266</ele>
        <time>2009-08-14T08:28:35Z</time>
      </trkpt>
      <trkpt lat="44.11544" lon="6.5917">
        <ele>1336.369873</ele>
        <time>2009-08-14T08:28:51Z</time>
      </trkpt>
      <trkpt lat="44.11567" lon="6.59147">
        <ele>1338.29248</ele>
        <time>2009-08-14T08:29:07Z</time>
      </trkpt>
      <trkpt lat="44.11589" lon="6.59128">
        <ele>1341.176514</ele>
        <time>2009-08-14T08:29:24Z</time>
      </trkpt>
      <trkpt lat="44.11614" lon="6.59141">
        <ele>1344.060547</ele>
        <time>2009-08-14T08:29:42Z</time>
      </trkpt>
      <trkpt lat="44.11641" lon="6.59155">
        <ele>1347.425049</ele>
        <time>2009-08-14T08:30:02Z</time>
      </trkpt>
      <trkpt lat="44.11668" lon="6.59164">
        <ele>1349.828369</ele>
        <time>2009-08-14T08:30:21Z</time>
      </trkpt>
      <trkpt lat="44.11693" lon="6.59154">
        <ele>1351.750977</ele>
        <time>2009-08-14T08:30:39Z</time>
      </trkpt>
      <trkpt lat="44.11721" lon="6.59154">
        <ele>1354.634766</ele>
        <time>2009-08-14T08:31:00Z</time>
      </trkpt>
      <trkpt lat="44.11747" lon="6.59163">
        <ele>1357.999756</ele>
        <time>2009-08-14T08:31:22Z</time>
      </trkpt>
      <trkpt lat="44.11774" lon="6.59173">
        <ele>1361.364258</ele>
        <time>2009-08-14T08:31:43Z</time>
      </trkpt>
      <trkpt lat="44.118" lon="6.59183">
        <ele>1364.248047</ele>
        <time>2009-08-14T08:32:04Z</time>
      </trkpt>
      <trkpt lat="44.11826" lon="6.59196">
        <ele>1367.13208</ele>
        <time>2009-08-14T08:32:24Z</time>
      </trkpt>
      <trkpt lat="44.11852" lon="6.5921">
        <ele>1370.977295</ele>
        <time>2009-08-14T08:32:45Z</time>
      </trkpt>
      <trkpt lat="44.11879" lon="6.59209">
        <ele>1372.900146</ele>
        <time>2009-08-14T08:33:05Z</time>
      </trkpt>
      <trkpt lat="44.11906" lon="6.59206">
        <ele>1375.783936</ele>
        <time>2009-08-14T08:33:26Z</time>
      </trkpt>
      <trkpt lat="44.11933" lon="6.59209">
        <ele>1379.148438</ele>
        <time>2009-08-14T08:33:49Z</time>
      </trkpt>
      <trkpt lat="44.11959" lon="6.5923">
        <ele>1381.071289</ele>
        <time>2009-08-14T08:34:11Z</time>
      </trkpt>
      <trkpt lat="44.11988" lon="6.59234">
        <ele>1383.955078</ele>
        <time>2009-08-14T08:34:31Z</time>
      </trkpt>
      <trkpt lat="44.12013" lon="6.59251">
        <ele>1387.31958</ele>
        <time>2009-08-14T08:34:52Z</time>
      </trkpt>
      <trkpt lat="44.12037" lon="6.59275">
        <ele>1389.723145</ele>
        <time>2009-08-14T08:35:13Z</time>
      </trkpt>
      <trkpt lat="44.12066" lon="6.5928">
        <ele>1393.087646</ele>
        <time>2009-08-14T08:35:34Z</time>
      </trkpt>
      <trkpt lat="44.12092" lon="6.5928">
        <ele>1395.490967</ele>
        <time>2009-08-14T08:35:54Z</time>
      </trkpt>
      <trkpt lat="44.12121" lon="6.59284">
        <ele>1398.374756</ele>
        <time>2009-08-14T08:36:14Z</time>
      </trkpt>
      <trkpt lat="44.12149" lon="6.59294">
        <ele>1400.778076</ele>
        <time>2009-08-14T08:36:33Z</time>
      </trkpt>
      <trkpt lat="44.12175" lon="6.59311">
        <ele>1404.143066</ele>
        <time>2009-08-14T08:36:54Z</time>
      </trkpt>
      <trkpt lat="44.12201" lon="6.59327">
        <ele>1406.06543</ele>
        <time>2009-08-14T08:37:14Z</time>
      </trkpt>
      <trkpt lat="44.12228" lon="6.59322">
        <ele>1408.949463</ele>
        <time>2009-08-14T08:37:32Z</time>
      </trkpt>
      <trkpt lat="44.12245" lon="6.59353">
        <ele>1409.910645</ele>
        <time>2009-08-14T08:37:49Z</time>
      </trkpt>
      <trkpt lat="44.1226" lon="6.59386">
        <ele>1411.352783</ele>
        <time>2009-08-14T08:38:04Z</time>
      </trkpt>
      <trkpt lat="44.12287" lon="6.59394">
        <ele>1413.755859</ele>
        <time>2009-08-14T08:38:21Z</time>
      </trkpt>
      <trkpt lat="44.12268" lon="6.59408">
        <ele>1416.15918</ele>
        <time>2009-08-14T08:38:39Z</time>
      </trkpt>
      <trkpt lat="44.12242" lon="6.59412">
        <ele>1419.043213</ele>
        <time>2009-08-14T08:38:57Z</time>
      </trkpt>
      <trkpt lat="44.12215" lon="6.59418">
        <ele>1421.446533</ele>
        <time>2009-08-14T08:39:15Z</time>
      </trkpt>
      <trkpt lat="44.12187" lon="6.59412">
        <ele>1424.330566</ele>
        <time>2009-08-14T08:39:33Z</time>
      </trkpt>
      <trkpt lat="44.1216" lon="6.59417">
        <ele>1427.695068</ele>
        <time>2009-08-14T08:39:52Z</time>
      </trkpt>
      <trkpt lat="44.12133" lon="6.59418">
        <ele>1430.579102</ele>
        <time>2009-08-14T08:40:11Z</time>
      </trkpt>
      <trkpt lat="44.12106" lon="6.59414">
        <ele>1432.982178</ele>
        <time>2009-08-14T08:40:30Z</time>
      </trkpt>
      <trkpt lat="44.12079" lon="6.59423">
        <ele>1435.385498</ele>
        <time>2009-08-14T08:40:50Z</time>
      </trkpt>
      <trkpt lat="44.12055" lon="6.59435">
        <ele>1437.30835</ele>
        <time>2009-08-14T08:41:08Z</time>
      </trkpt>
      <trkpt lat="44.12029" lon="6.59452">
        <ele>1440.192383</ele>
        <time>2009-08-14T08:41:28Z</time>
      </trkpt>
      <trkpt lat="44.12004" lon="6.5947">
        <ele>1443.076172</ele>
        <time>2009-08-14T08:41:47Z</time>
      </trkpt>
      <trkpt lat="44.11979" lon="6.5949">
        <ele>1445.960205</ele>
        <time>2009-08-14T08:42:06Z</time>
      </trkpt>
      <trkpt lat="44.11959" lon="6.59517">
        <ele>1448.843994</ele>
        <time>2009-08-14T08:42:24Z</time>
      </trkpt>
      <trkpt lat="44.11935" lon="6.59537">
        <ele>1450.286133</ele>
        <time>2009-08-14T08:42:40Z</time>
      </trkpt>
      <trkpt lat="44.11909" lon="6.59544">
        <ele>1453.170166</ele>
        <time>2009-08-14T08:42:58Z</time>
      </trkpt>
      <trkpt lat="44.11881" lon="6.59557">
        <ele>1456.534668</ele>
        <time>2009-08-14T08:43:17Z</time>
      </trkpt>
      <trkpt lat="44.11858" lon="6.59572">
        <ele>1458.937988</ele>
        <time>2009-08-14T08:43:36Z</time>
      </trkpt>
      <trkpt lat="44.1183" lon="6.59574">
        <ele>1461.341309</ele>
        <time>2009-08-14T08:43:54Z</time>
      </trkpt>
      <trkpt lat="44.11803" lon="6.59575">
        <ele>1463.744385</ele>
        <time>2009-08-14T08:44:12Z</time>
      </trkpt>
      <trkpt lat="44.11781" lon="6.596">
        <ele>1466.147705</ele>
        <time>2009-08-14T08:44:30Z</time>
      </trkpt>
      <trkpt lat="44.11757" lon="6.59621">
        <ele>1468.55127</ele>
        <time>2009-08-14T08:44:48Z</time>
      </trkpt>
      <trkpt lat="44.11741" lon="6.59652">
        <ele>1471.435059</ele>
        <time>2009-08-14T08:45:07Z</time>
      </trkpt>
      <trkpt lat="44.11734" lon="6.59688">
        <ele>1475.280273</ele>
        <time>2009-08-14T08:45:26Z</time>
      </trkpt>
      <trkpt lat="44.11729" lon="6.59727">
        <ele>1477.683594</ele>
        <time>2009-08-14T08:45:45Z</time>
      </trkpt>
      <trkpt lat="44.11722" lon="6.59764">
        <ele>1481.04834</ele>
        <time>2009-08-14T08:46:02Z</time>
      </trkpt>
      <trkpt lat="44.1171" lon="6.59801">
        <ele>1482.970703</ele>
        <time>2009-08-14T08:46:18Z</time>
      </trkpt>
      <trkpt lat="44.11702" lon="6.59838">
        <ele>1486.816162</ele>
        <time>2009-08-14T08:46:36Z</time>
      </trkpt>
      <trkpt lat="44.11692" lon="6.59873">
        <ele>1489.219482</ele>
        <time>2009-08-14T08:46:56Z</time>
      </trkpt>
      <trkpt lat="44.11681" lon="6.59909">
        <ele>1492.103516</ele>
        <time>2009-08-14T08:47:15Z</time>
      </trkpt>
      <trkpt lat="44.11669" lon="6.59947">
        <ele>1494.987305</ele>
        <time>2009-08-14T08:47:35Z</time>
      </trkpt>
      <trkpt lat="44.11658" lon="6.59983">
        <ele>1497.390625</ele>
        <time>2009-08-14T08:47:53Z</time>
      </trkpt>
      <trkpt lat="44.11644" lon="6.60018">
        <ele>1500.274902</ele>
        <time>2009-08-14T08:48:11Z</time>
      </trkpt>
      <trkpt lat="44.11632" lon="6.60053">
        <ele>1503.158691</ele>
        <time>2009-08-14T08:48:28Z</time>
      </trkpt>
      <trkpt lat="44.11618" lon="6.60086">
        <ele>1505.081299</ele>
        <time>2009-08-14T08:48:44Z</time>
      </trkpt>
      <trkpt lat="44.11603" lon="6.60118">
        <ele>1507.965332</ele>
        <time>2009-08-14T08:49:02Z</time>
      </trkpt>
      <trkpt lat="44.1158" lon="6.6014">
        <ele>1511.810547</ele>
        <time>2009-08-14T08:49:21Z</time>
      </trkpt>
      <trkpt lat="44.11567" lon="6.60171">
        <ele>1514.213623</ele>
        <time>2009-08-14T08:49:40Z</time>
      </trkpt>
      <trkpt lat="44.11566" lon="6.6021">
        <ele>1517.0979</ele>
        <time>2009-08-14T08:49:58Z</time>
      </trkpt>
      <trkpt lat="44.11554" lon="6.60243">
        <ele>1519.501221</ele>
        <time>2009-08-14T08:50:15Z</time>
      </trkpt>
      <trkpt lat="44.11532" lon="6.60264">
        <ele>1521.904297</ele>
        <time>2009-08-14T08:50:31Z</time>
      </trkpt>
      <trkpt lat="44.11515" lon="6.60294">
        <ele>1523.826904</ele>
        <time>2009-08-14T08:50:47Z</time>
      </trkpt>
      <trkpt lat="44.11493" lon="6.60319">
        <ele>1525.749512</ele>
        <time>2009-08-14T08:51:02Z</time>
      </trkpt>
      <trkpt lat="44.11514" lon="6.60324">
        <ele>1528.633545</ele>
        <time>2009-08-14T08:52:15Z</time>
      </trkpt>
      <trkpt lat="44.11536" lon="6.60302">
        <ele>1529.594727</ele>
        <time>2009-08-14T08:52:27Z</time>
      </trkpt>
      <trkpt lat="44.1156" lon="6.60286">
        <ele>1531.998047</ele>
        <time>2009-08-14T08:52:40Z</time>
      </trkpt>
      <trkpt lat="44.11587" lon="6.60282">
        <ele>1533.920898</ele>
        <time>2009-08-14T08:52:56Z</time>
      </trkpt>
      <trkpt lat="44.11611" lon="6.60265">
        <ele>1537.2854</ele>
        <time>2009-08-14T08:53:13Z</time>
      </trkpt>
      <trkpt lat="44.11632" lon="6.60239">
        <ele>1539.688721</ele>
        <time>2009-08-14T08:53:31Z</time>
      </trkpt>
      <trkpt lat="44.11658" lon="6.6023">
        <ele>1542.092041</ele>
        <time>2009-08-14T08:53:49Z</time>
      </trkpt>
      <trkpt lat="44.11682" lon="6.60207">
        <ele>1544.495117</ele>
        <time>2009-08-14T08:54:07Z</time>
      </trkpt>
      <trkpt lat="44.11701" lon="6.60177">
        <ele>1545.937256</ele>
        <time>2009-08-14T08:54:23Z</time>
      </trkpt>
      <trkpt lat="44.11715" lon="6.60145">
        <ele>1547.859863</ele>
        <time>2009-08-14T08:54:38Z</time>
      </trkpt>
      <trkpt lat="44.11729" lon="6.6011">
        <ele>1549.302002</ele>
        <time>2009-08-14T08:54:52Z</time>
      </trkpt>
      <trkpt lat="44.11747" lon="6.6008">
        <ele>1550.743896</ele>
        <time>2009-08-14T08:55:06Z</time>
      </trkpt>
      <trkpt lat="44.11765" lon="6.60049">
        <ele>1552.185791</ele>
        <time>2009-08-14T08:55:20Z</time>
      </trkpt>
      <trkpt lat="44.11785" lon="6.60022">
        <ele>1554.108643</ele>
        <time>2009-08-14T08:55:36Z</time>
      </trkpt>
      <trkpt lat="44.11806" lon="6.59997">
        <ele>1556.031006</ele>
        <time>2009-08-14T08:55:52Z</time>
      </trkpt>
      <trkpt lat="44.11822" lon="6.59965">
        <ele>1556.992432</ele>
        <time>2009-08-14T08:56:07Z</time>
      </trkpt>
      <trkpt lat="44.11838" lon="6.59973">
        <ele>1559.395752</ele>
        <time>2009-08-14T08:56:22Z</time>
      </trkpt>
      <trkpt lat="44.11821" lon="6.60003">
        <ele>1561.318359</ele>
        <time>2009-08-14T08:56:39Z</time>
      </trkpt>
      <trkpt lat="44.11807" lon="6.60037">
        <ele>1563.721436</ele>
        <time>2009-08-14T08:56:56Z</time>
      </trkpt>
      <trkpt lat="44.11793" lon="6.60069">
        <ele>1567.566895</ele>
        <time>2009-08-14T08:57:17Z</time>
      </trkpt>
      <trkpt lat="44.11781" lon="6.60105">
        <ele>1570.931641</ele>
        <time>2009-08-14T08:57:39Z</time>
      </trkpt>
      <trkpt lat="44.11774" lon="6.6014">
        <ele>1574.776855</ele>
        <time>2009-08-14T08:58:01Z</time>
      </trkpt>
      <trkpt lat="44.11768" lon="6.60176">
        <ele>1578.141357</ele>
        <time>2009-08-14T08:58:23Z</time>
      </trkpt>
      <trkpt lat="44.1176" lon="6.60212">
        <ele>1582.467529</ele>
        <time>2009-08-14T08:58:45Z</time>
      </trkpt>
      <trkpt lat="44.1175" lon="6.60247">
        <ele>1585.832031</ele>
        <time>2009-08-14T08:59:06Z</time>
      </trkpt>
      <trkpt lat="44.11737" lon="6.60282">
        <ele>1589.196533</ele>
        <time>2009-08-14T08:59:26Z</time>
      </trkpt>
      <trkpt lat="44.11721" lon="6.60313">
        <ele>1593.041748</ele>
        <time>2009-08-14T08:59:47Z</time>
      </trkpt>
      <trkpt lat="44.11704" lon="6.60345">
        <ele>1597.36792</ele>
        <time>2009-08-14T09:00:09Z</time>
      </trkpt>
      <trkpt lat="44.11685" lon="6.60374">
        <ele>1600.251953</ele>
        <time>2009-08-14T09:00:30Z</time>
      </trkpt>
      <trkpt lat="44.11667" lon="6.60403">
        <ele>1603.616455</ele>
        <time>2009-08-14T09:00:50Z</time>
      </trkpt>
      <trkpt lat="44.11651" lon="6.60433">
        <ele>1607.942383</ele>
        <time>2009-08-14T09:01:10Z</time>
      </trkpt>
      <trkpt lat="44.1163" lon="6.60458">
        <ele>1611.306885</ele>
        <time>2009-08-14T09:01:28Z</time>
      </trkpt>
      <trkpt lat="44.11605" lon="6.60476">
        <ele>1615.152344</ele>
        <time>2009-08-14T09:01:48Z</time>
      </trkpt>
      <trkpt lat="44.11587" lon="6.60505">
        <ele>1618.036133</ele>
        <time>2009-08-14T09:02:06Z</time>
      </trkpt>
      <trkpt lat="44.11565" lon="6.60527">
        <ele>1621.400635</ele>
        <time>2009-08-14T09:02:23Z</time>
      </trkpt>
      <trkpt lat="44.11544" lon="6.60552">
        <ele>1623.323486</ele>
        <time>2009-08-14T09:02:43Z</time>
      </trkpt>
      <trkpt lat="44.11521" lon="6.60576">
        <ele>1626.687988</ele>
        <time>2009-08-14T09:03:04Z</time>
      </trkpt>
      <trkpt lat="44.11498" lon="6.60597">
        <ele>1629.572021</ele>
        <time>2009-08-14T09:03:24Z</time>
      </trkpt>
      <trkpt lat="44.11476" lon="6.60618">
        <ele>1632.456055</ele>
        <time>2009-08-14T09:03:45Z</time>
      </trkpt>
      <trkpt lat="44.1145" lon="6.60639">
        <ele>1635.820557</ele>
        <time>2009-08-14T09:04:06Z</time>
      </trkpt>
      <trkpt lat="44.11431" lon="6.6067">
        <ele>1638.70459</ele>
        <time>2009-08-14T09:04:25Z</time>
      </trkpt>
      <trkpt lat="44.1143" lon="6.60708">
        <ele>1641.588379</ele>
        <time>2009-08-14T09:04:44Z</time>
      </trkpt>
      <trkpt lat="44.11433" lon="6.60747">
        <ele>1644.953125</ele>
        <time>2009-08-14T09:05:03Z</time>
      </trkpt>
      <trkpt lat="44.1143" lon="6.60785">
        <ele>1648.317627</ele>
        <time>2009-08-14T09:05:25Z</time>
      </trkpt>
      <trkpt lat="44.11421" lon="6.60822">
        <ele>1651.20166</ele>
        <time>2009-08-14T09:05:50Z</time>
      </trkpt>
      <trkpt lat="44.11404" lon="6.60897">
        <ele>1655.527588</ele>
        <time>2009-08-14T09:06:34Z</time>
      </trkpt>
      <trkpt lat="44.11373" lon="6.60907">
        <ele>1658.89209</ele>
        <time>2009-08-14T09:06:57Z</time>
      </trkpt>
      <trkpt lat="44.1135" lon="6.60928">
        <ele>1661.776367</ele>
        <time>2009-08-14T09:07:17Z</time>
      </trkpt>
      <trkpt lat="44.11333" lon="6.60962">
        <ele>1663.69873</ele>
        <time>2009-08-14T09:07:37Z</time>
      </trkpt>
      <trkpt lat="44.1133" lon="6.61">
        <ele>1665.621582</ele>
        <time>2009-08-14T09:07:54Z</time>
      </trkpt>
      <trkpt lat="44.11325" lon="6.61041">
        <ele>1667.543945</ele>
        <time>2009-08-14T09:08:12Z</time>
      </trkpt>
      <trkpt lat="44.11309" lon="6.61072">
        <ele>1670.427979</ele>
        <time>2009-08-14T09:08:29Z</time>
      </trkpt>
      <trkpt lat="44.11331" lon="6.61085">
        <ele>1672.831299</ele>
        <time>2009-08-14T09:09:38Z</time>
      </trkpt>
      <trkpt lat="44.11344" lon="6.61053">
        <ele>1674.753906</ele>
        <time>2009-08-14T09:09:57Z</time>
      </trkpt>
      <trkpt lat="44.1135" lon="6.61014">
        <ele>1676.196045</ele>
        <time>2009-08-14T09:10:13Z</time>
      </trkpt>
      <trkpt lat="44.11361" lon="6.6098">
        <ele>1679.079834</ele>
        <time>2009-08-14T09:10:30Z</time>
      </trkpt>
      <trkpt lat="44.11384" lon="6.60964">
        <ele>1682.44458</ele>
        <time>2009-08-14T09:10:47Z</time>
      </trkpt>
      <trkpt lat="44.11412" lon="6.60961">
        <ele>1684.8479</ele>
        <time>2009-08-14T09:11:03Z</time>
      </trkpt>
      <trkpt lat="44.1144" lon="6.60955">
        <ele>1687.731689</ele>
        <time>2009-08-14T09:11:20Z</time>
      </trkpt>
      <trkpt lat="44.11457" lon="6.60924">
        <ele>1690.615479</ele>
        <time>2009-08-14T09:11:36Z</time>
      </trkpt>
      <trkpt lat="44.11474" lon="6.60893">
        <ele>1693.499756</ele>
        <time>2009-08-14T09:11:52Z</time>
      </trkpt>
      <trkpt lat="44.11486" lon="6.60859">
        <ele>1696.383789</ele>
        <time>2009-08-14T09:12:08Z</time>
      </trkpt>
      <trkpt lat="44.11501" lon="6.60827">
        <ele>1699.267578</ele>
        <time>2009-08-14T09:12:25Z</time>
      </trkpt>
      <trkpt lat="44.11515" lon="6.60792">
        <ele>1702.63208</ele>
        <time>2009-08-14T09:12:44Z</time>
      </trkpt>
      <trkpt lat="44.11537" lon="6.60768">
        <ele>1705.516113</ele>
        <time>2009-08-14T09:13:02Z</time>
      </trkpt>
      <trkpt lat="44.1156" lon="6.60745">
        <ele>1707.919434</ele>
        <time>2009-08-14T09:13:19Z</time>
      </trkpt>
      <trkpt lat="44.11584" lon="6.6073">
        <ele>1710.803467</ele>
        <time>2009-08-14T09:13:37Z</time>
      </trkpt>
      <trkpt lat="44.11609" lon="6.60716">
        <ele>1713.687256</ele>
        <time>2009-08-14T09:13:56Z</time>
      </trkpt>
      <trkpt lat="44.11636" lon="6.60705">
        <ele>1716.571289</ele>
        <time>2009-08-14T09:14:16Z</time>
      </trkpt>
      <trkpt lat="44.11662" lon="6.60697">
        <ele>1718.974609</ele>
        <time>2009-08-14T09:14:35Z</time>
      </trkpt>
      <trkpt lat="44.11687" lon="6.6068">
        <ele>1722.339111</ele>
        <time>2009-08-14T09:14:53Z</time>
      </trkpt>
      <trkpt lat="44.1171" lon="6.60663">
        <ele>1725.703857</ele>
        <time>2009-08-14T09:15:11Z</time>
      </trkpt>
      <trkpt lat="44.11735" lon="6.60648">
        <ele>1728.107178</ele>
        <time>2009-08-14T09:15:31Z</time>
      </trkpt>
      <trkpt lat="44.11757" lon="6.60629">
        <ele>1730.029785</ele>
        <time>2009-08-14T09:15:48Z</time>
      </trkpt>
      <trkpt lat="44.11779" lon="6.60606">
        <ele>1733.394287</ele>
        <time>2009-08-14T09:16:05Z</time>
      </trkpt>
      <trkpt lat="44.11802" lon="6.60589">
        <ele>1735.797607</ele>
        <time>2009-08-14T09:16:22Z</time>
      </trkpt>
      <trkpt lat="44.11828" lon="6.60574">
        <ele>1739.162109</ele>
        <time>2009-08-14T09:16:39Z</time>
      </trkpt>
      <trkpt lat="44.11853" lon="6.60559">
        <ele>1742.046387</ele>
        <time>2009-08-14T09:16:55Z</time>
      </trkpt>
      <trkpt lat="44.11876" lon="6.60537">
        <ele>1744.449463</ele>
        <time>2009-08-14T09:17:10Z</time>
      </trkpt>
      <trkpt lat="44.11897" lon="6.60509">
        <ele>1747.333496</ele>
        <time>2009-08-14T09:17:23Z</time>
      </trkpt>
      <trkpt lat="44.11911" lon="6.60476">
        <ele>1749.256104</ele>
        <time>2009-08-14T09:17:37Z</time>
      </trkpt>
      <trkpt lat="44.1193" lon="6.60447">
        <ele>1750.697998</ele>
        <time>2009-08-14T09:17:50Z</time>
      </trkpt>
      <trkpt lat="44.11947" lon="6.60415">
        <ele>1752.139893</ele>
        <time>2009-08-14T09:18:02Z</time>
      </trkpt>
      <trkpt lat="44.11965" lon="6.60385">
        <ele>1753.582031</ele>
        <time>2009-08-14T09:18:14Z</time>
      </trkpt>
      <trkpt lat="44.11967" lon="6.60413">
        <ele>1755.985107</ele>
        <time>2009-08-14T09:20:56Z</time>
      </trkpt>
      <trkpt lat="44.11948" lon="6.60441">
        <ele>1757.42749</ele>
        <time>2009-08-14T09:22:32Z</time>
      </trkpt>
      <trkpt lat="44.11932" lon="6.60474">
        <ele>1759.350098</ele>
        <time>2009-08-14T09:22:49Z</time>
      </trkpt>
      <trkpt lat="44.11922" lon="6.60511">
        <ele>1761.753418</ele>
        <time>2009-08-14T09:23:07Z</time>
      </trkpt>
      <trkpt lat="44.11914" lon="6.60547">
        <ele>1765.11792</ele>
        <time>2009-08-14T09:23:27Z</time>
      </trkpt>
      <trkpt lat="44.11901" lon="6.60582">
        <ele>1768.963135</ele>
        <time>2009-08-14T09:23:47Z</time>
      </trkpt>
      <trkpt lat="44.11879" lon="6.60603">
        <ele>1771.366211</ele>
        <time>2009-08-14T09:24:06Z</time>
      </trkpt>
      <trkpt lat="44.11857" lon="6.60625">
        <ele>1773.769775</ele>
        <time>2009-08-14T09:24:26Z</time>
      </trkpt>
      <trkpt lat="44.11837" lon="6.6065">
        <ele>1778.095703</ele>
        <time>2009-08-14T09:24:46Z</time>
      </trkpt>
      <trkpt lat="44.11817" lon="6.60693">
        <ele>1782.9021</ele>
        <time>2009-08-14T09:25:15Z</time>
      </trkpt>
      <trkpt lat="44.11799" lon="6.60727">
        <ele>1786.266846</ele>
        <time>2009-08-14T09:25:36Z</time>
      </trkpt>
      <trkpt lat="44.11778" lon="6.60758">
        <ele>1789.150879</ele>
        <time>2009-08-14T09:25:56Z</time>
      </trkpt>
      <trkpt lat="44.11759" lon="6.60793">
        <ele>1791.554199</ele>
        <time>2009-08-14T09:26:14Z</time>
      </trkpt>
      <trkpt lat="44.11739" lon="6.60824">
        <ele>1795.399414</ele>
        <time>2009-08-14T09:26:33Z</time>
      </trkpt>
      <trkpt lat="44.11719" lon="6.60857">
        <ele>1798.283203</ele>
        <time>2009-08-14T09:26:54Z</time>
      </trkpt>
      <trkpt lat="44.11701" lon="6.60891">
        <ele>1801.647949</ele>
        <time>2009-08-14T09:27:14Z</time>
      </trkpt>
      <trkpt lat="44.11683" lon="6.60926">
        <ele>1804.531982</ele>
        <time>2009-08-14T09:27:35Z</time>
      </trkpt>
      <trkpt lat="44.11664" lon="6.60963">
        <ele>1808.377197</ele>
        <time>2009-08-14T09:27:55Z</time>
      </trkpt>
      <trkpt lat="44.11646" lon="6.60998">
        <ele>1811.26123</ele>
        <time>2009-08-14T09:28:12Z</time>
      </trkpt>
      <trkpt lat="44.11633" lon="6.61035">
        <ele>1814.14502</ele>
        <time>2009-08-14T09:28:28Z</time>
      </trkpt>
      <trkpt lat="44.11621" lon="6.61073">
        <ele>1816.54834</ele>
        <time>2009-08-14T09:28:46Z</time>
      </trkpt>
      <trkpt lat="44.11607" lon="6.61109">
        <ele>1820.874512</ele>
        <time>2009-08-14T09:29:04Z</time>
      </trkpt>
      <trkpt lat="44.11593" lon="6.61143">
        <ele>1822.797119</ele>
        <time>2009-08-14T09:29:19Z</time>
      </trkpt>
      <trkpt lat="44.11581" lon="6.61179">
        <ele>1825.680908</ele>
        <time>2009-08-14T09:29:34Z</time>
      </trkpt>
      <trkpt lat="44.11566" lon="6.61213">
        <ele>1828.084229</ele>
        <time>2009-08-14T09:29:50Z</time>
      </trkpt>
      <trkpt lat="44.11539" lon="6.61223">
        <ele>1830.487549</ele>
        <time>2009-08-14T09:30:05Z</time>
      </trkpt>
      <trkpt lat="44.11513" lon="6.61234">
        <ele>1832.890625</ele>
        <time>2009-08-14T09:30:21Z</time>
      </trkpt>
      <trkpt lat="44.11493" lon="6.61265">
        <ele>1835.293945</ele>
        <time>2009-08-14T09:30:36Z</time>
      </trkpt>
      <trkpt lat="44.11486" lon="6.61303">
        <ele>1838.178223</ele>
        <time>2009-08-14T09:30:52Z</time>
      </trkpt>
      <trkpt lat="44.11473" lon="6.61342">
        <ele>1840.581299</ele>
        <time>2009-08-14T09:31:09Z</time>
      </trkpt>
      <trkpt lat="44.1142" lon="6.61362">
        <ele>1846.349365</ele>
        <time>2009-08-14T09:31:42Z</time>
      </trkpt>
      <trkpt lat="44.11382" lon="6.61422">
        <ele>1853.559326</ele>
        <time>2009-08-14T09:32:22Z</time>
      </trkpt>
      <trkpt lat="44.11365" lon="6.61456">
        <ele>1856.443115</ele>
        <time>2009-08-14T09:32:38Z</time>
      </trkpt>
      <trkpt lat="44.11341" lon="6.61473">
        <ele>1859.807617</ele>
        <time>2009-08-14T09:32:56Z</time>
      </trkpt>
      <trkpt lat="44.11314" lon="6.61487">
        <ele>1863.652832</ele>
        <time>2009-08-14T09:33:15Z</time>
      </trkpt>
      <trkpt lat="44.11293" lon="6.61512">
        <ele>1866.536865</ele>
        <time>2009-08-14T09:33:33Z</time>
      </trkpt>
      <trkpt lat="44.11275" lon="6.61544">
        <ele>1869.901611</ele>
        <time>2009-08-14T09:33:51Z</time>
      </trkpt>
      <trkpt lat="44.11258" lon="6.6158">
        <ele>1872.785645</ele>
        <time>2009-08-14T09:34:10Z</time>
      </trkpt>
      <trkpt lat="44.11246" lon="6.61617">
        <ele>1876.150146</ele>
        <time>2009-08-14T09:34:28Z</time>
      </trkpt>
      <trkpt lat="44.11237" lon="6.61654">
        <ele>1879.033936</ele>
        <time>2009-08-14T09:34:46Z</time>
      </trkpt>
      <trkpt lat="44.11227" lon="6.61691">
        <ele>1882.87915</ele>
        <time>2009-08-14T09:35:04Z</time>
      </trkpt>
      <trkpt lat="44.11214" lon="6.61728">
        <ele>1886.724609</ele>
        <time>2009-08-14T09:35:22Z</time>
      </trkpt>
      <trkpt lat="44.11206" lon="6.61764">
        <ele>1890.089355</ele>
        <time>2009-08-14T09:35:42Z</time>
      </trkpt>
      <trkpt lat="44.11187" lon="6.61791">
        <ele>1892.973145</ele>
        <time>2009-08-14T09:36:01Z</time>
      </trkpt>
      <trkpt lat="44.11161" lon="6.61805">
        <ele>1896.337891</ele>
        <time>2009-08-14T09:36:19Z</time>
      </trkpt>
      <trkpt lat="44.11139" lon="6.61827">
        <ele>1899.22168</ele>
        <time>2009-08-14T09:36:38Z</time>
      </trkpt>
      <trkpt lat="44.11123" lon="6.6186">
        <ele>1902.586426</ele>
        <time>2009-08-14T09:36:55Z</time>
      </trkpt>
      <trkpt lat="44.11106" lon="6.61894">
        <ele>1905.950928</ele>
        <time>2009-08-14T09:37:13Z</time>
      </trkpt>
      <trkpt lat="44.11091" lon="6.61922">
        <ele>1908.834961</ele>
        <time>2009-08-14T09:37:29Z</time>
      </trkpt>
      <trkpt lat="44.11072" lon="6.61956">
        <ele>1912.199463</ele>
        <time>2009-08-14T09:37:43Z</time>
      </trkpt>
      <trkpt lat="44.11057" lon="6.6199">
        <ele>1914.602783</ele>
        <time>2009-08-14T09:37:56Z</time>
      </trkpt>
      <trkpt lat="44.11042" lon="6.62025">
        <ele>1917.006348</ele>
        <time>2009-08-14T09:38:08Z</time>
      </trkpt>
      <trkpt lat="44.11025" lon="6.62061">
        <ele>1919.409668</ele>
        <time>2009-08-14T09:38:19Z</time>
      </trkpt>
      <trkpt lat="44.11002" lon="6.62091">
        <ele>1919.890137</ele>
        <time>2009-08-14T09:38:29Z</time>
      </trkpt>
      <trkpt lat="44.10982" lon="6.62117">
        <ele>1920.851563</ele>
        <time>2009-08-14T09:38:39Z</time>
      </trkpt>
      <trkpt lat="44.10981" lon="6.62156">
        <ele>1921.332031</ele>
        <time>2009-08-14T09:38:52Z</time>
      </trkpt>
      <trkpt lat="44.10987" lon="6.62195">
        <ele>1922.77417</ele>
        <time>2009-08-14T09:39:06Z</time>
      </trkpt>
      <trkpt lat="44.10984" lon="6.62233">
        <ele>1923.254883</ele>
        <time>2009-08-14T09:39:19Z</time>
      </trkpt>
      <trkpt lat="44.10981" lon="6.62271">
        <ele>1924.696777</ele>
        <time>2009-08-14T09:39:31Z</time>
      </trkpt>
      <trkpt lat="44.10979" lon="6.62311">
        <ele>1926.138672</ele>
        <time>2009-08-14T09:39:44Z</time>
      </trkpt>
      <trkpt lat="44.10986" lon="6.62349">
        <ele>1927.580566</ele>
        <time>2009-08-14T09:39:56Z</time>
      </trkpt>
      <trkpt lat="44.11006" lon="6.62374">
        <ele>1928.541992</ele>
        <time>2009-08-14T09:40:07Z</time>
      </trkpt>
      <trkpt lat="44.11031" lon="6.62393">
        <ele>1929.983887</ele>
        <time>2009-08-14T09:40:19Z</time>
      </trkpt>
      <trkpt lat="44.11056" lon="6.62412">
        <ele>1930.945313</ele>
        <time>2009-08-14T09:40:32Z</time>
      </trkpt>
      <trkpt lat="44.11082" lon="6.62428">
        <ele>1932.387451</ele>
        <time>2009-08-14T09:40:44Z</time>
      </trkpt>
      <trkpt lat="44.11108" lon="6.62445">
        <ele>1933.829346</ele>
        <time>2009-08-14T09:40:57Z</time>
      </trkpt>
      <trkpt lat="44.11133" lon="6.62462">
        <ele>1935.751953</ele>
        <time>2009-08-14T09:41:10Z</time>
      </trkpt>
      <trkpt lat="44.11157" lon="6.6248">
        <ele>1937.193848</ele>
        <time>2009-08-14T09:41:22Z</time>
      </trkpt>
      <trkpt lat="44.11182" lon="6.62499">
        <ele>1939.116455</ele>
        <time>2009-08-14T09:41:35Z</time>
      </trkpt>
      <trkpt lat="44.11205" lon="6.62519">
        <ele>1940.077881</ele>
        <time>2009-08-14T09:41:47Z</time>
      </trkpt>
      <trkpt lat="44.11216" lon="6.62553">
        <ele>1942.000488</ele>
        <time>2009-08-14T09:42:00Z</time>
      </trkpt>
      <trkpt lat="44.11213" lon="6.62589">
        <ele>1943.923096</ele>
        <time>2009-08-14T09:42:13Z</time>
      </trkpt>
      <trkpt lat="44.1119" lon="6.62612">
        <ele>1944.403564</ele>
        <time>2009-08-14T09:42:26Z</time>
      </trkpt>
      <trkpt lat="44.11169" lon="6.62636">
        <ele>1945.36499</ele>
        <time>2009-08-14T09:42:38Z</time>
      </trkpt>
      <trkpt lat="44.11144" lon="6.62661">
        <ele>1945.36499</ele>
        <time>2009-08-14T09:42:51Z</time>
      </trkpt>
      <trkpt lat="44.11123" lon="6.62686">
        <ele>1945.36499</ele>
        <time>2009-08-14T09:43:02Z</time>
      </trkpt>
      <trkpt lat="44.11111" lon="6.62722">
        <ele>1946.326416</ele>
        <time>2009-08-14T09:43:13Z</time>
      </trkpt>
      <trkpt lat="44.11123" lon="6.62757">
        <ele>1946.806885</ele>
        <time>2009-08-14T09:43:24Z</time>
      </trkpt>
      <trkpt lat="44.11146" lon="6.6278">
        <ele>1947.768311</ele>
        <time>2009-08-14T09:43:34Z</time>
      </trkpt>
      <trkpt lat="44.11169" lon="6.62802">
        <ele>1947.768311</ele>
        <time>2009-08-14T09:43:44Z</time>
      </trkpt>
      <trkpt lat="44.1119" lon="6.62826">
        <ele>1948.729736</ele>
        <time>2009-08-14T09:43:53Z</time>
      </trkpt>
      <trkpt lat="44.11206" lon="6.62856">
        <ele>1948.729736</ele>
        <time>2009-08-14T09:44:02Z</time>
      </trkpt>
      <trkpt lat="44.1121" lon="6.62897">
        <ele>1949.691162</ele>
        <time>2009-08-14T09:44:12Z</time>
      </trkpt>
      <trkpt lat="44.1122" lon="6.62933">
        <ele>1949.691162</ele>
        <time>2009-08-14T09:44:22Z</time>
      </trkpt>
      <trkpt lat="44.11234" lon="6.62968">
        <ele>1950.652344</ele>
        <time>2009-08-14T09:44:32Z</time>
      </trkpt>
      <trkpt lat="44.11248" lon="6.63">
        <ele>1951.61377</ele>
        <time>2009-08-14T09:44:42Z</time>
      </trkpt>
      <trkpt lat="44.11254" lon="6.63037">
        <ele>1951.61377</ele>
        <time>2009-08-14T09:44:52Z</time>
      </trkpt>
      <trkpt lat="44.11261" lon="6.63072">
        <ele>1952.094238</ele>
        <time>2009-08-14T09:45:03Z</time>
      </trkpt>
      <trkpt lat="44.11274" lon="6.63108">
        <ele>1953.055664</ele>
        <time>2009-08-14T09:45:14Z</time>
      </trkpt>
      <trkpt lat="44.11289" lon="6.63142">
        <ele>1954.01709</ele>
        <time>2009-08-14T09:45:25Z</time>
      </trkpt>
      <trkpt lat="44.11296" lon="6.63179">
        <ele>1955.939453</ele>
        <time>2009-08-14T09:45:37Z</time>
      </trkpt>
      <trkpt lat="44.11288" lon="6.63214">
        <ele>1956.900879</ele>
        <time>2009-08-14T09:45:48Z</time>
      </trkpt>
      <trkpt lat="44.11279" lon="6.6325">
        <ele>1958.342773</ele>
        <time>2009-08-14T09:45:59Z</time>
      </trkpt>
      <trkpt lat="44.11268" lon="6.63285">
        <ele>1959.784668</ele>
        <time>2009-08-14T09:46:10Z</time>
      </trkpt>
      <trkpt lat="44.11262" lon="6.63323">
        <ele>1961.226807</ele>
        <time>2009-08-14T09:46:22Z</time>
      </trkpt>
      <trkpt lat="44.11266" lon="6.6336">
        <ele>1962.668701</ele>
        <time>2009-08-14T09:46:33Z</time>
      </trkpt>
      <trkpt lat="44.11286" lon="6.63391">
        <ele>1963.629883</ele>
        <time>2009-08-14T09:46:45Z</time>
      </trkpt>
      <trkpt lat="44.11309" lon="6.63414">
        <ele>1965.552979</ele>
        <time>2009-08-14T09:46:57Z</time>
      </trkpt>
      <trkpt lat="44.11332" lon="6.63435">
        <ele>1966.51416</ele>
        <time>2009-08-14T09:47:09Z</time>
      </trkpt>
      <trkpt lat="44.11355" lon="6.63459">
        <ele>1967.475342</ele>
        <time>2009-08-14T09:47:21Z</time>
      </trkpt>
      <trkpt lat="44.11375" lon="6.63487">
        <ele>1969.398193</ele>
        <time>2009-08-14T09:47:33Z</time>
      </trkpt>
      <trkpt lat="44.11391" lon="6.63519">
        <ele>1970.840088</ele>
        <time>2009-08-14T09:47:45Z</time>
      </trkpt>
      <trkpt lat="44.11401" lon="6.63556">
        <ele>1972.281982</ele>
        <time>2009-08-14T09:47:58Z</time>
      </trkpt>
      <trkpt lat="44.11407" lon="6.63594">
        <ele>1972.762695</ele>
        <time>2009-08-14T09:48:12Z</time>
      </trkpt>
      <trkpt lat="44.11412" lon="6.63617">
        <ele>1972.762695</ele>
        <time>2009-08-14T09:55:39Z</time>
      </trkpt>
      <trkpt lat="44.1139" lon="6.63647">
        <ele>1975.165771</ele>
        <time>2009-08-14T09:57:01Z</time>
      </trkpt>
      <trkpt lat="44.11373" lon="6.6368">
        <ele>1979.491699</ele>
        <time>2009-08-14T09:57:39Z</time>
      </trkpt>
      <trkpt lat="44.11342" lon="6.63707">
        <ele>1986.70166</ele>
        <time>2009-08-14T09:58:28Z</time>
      </trkpt>
      <trkpt lat="44.11312" lon="6.63703">
        <ele>1992.469727</ele>
        <time>2009-08-14T09:59:17Z</time>
      </trkpt>
      <trkpt lat="44.11284" lon="6.63704">
        <ele>1996.315186</ele>
        <time>2009-08-14T09:59:43Z</time>
      </trkpt>
      <trkpt lat="44.11256" lon="6.63706">
        <ele>2001.121582</ele>
        <time>2009-08-14T10:00:11Z</time>
      </trkpt>
      <trkpt lat="44.11228" lon="6.6371">
        <ele>2005.927979</ele>
        <time>2009-08-14T10:00:42Z</time>
      </trkpt>
      <trkpt lat="44.11199" lon="6.6372">
        <ele>2008.812012</ele>
        <time>2009-08-14T10:01:22Z</time>
      </trkpt>
      <trkpt lat="44.11215" lon="6.63754">
        <ele>2016.021973</ele>
        <time>2009-08-14T10:01:58Z</time>
      </trkpt>
      <trkpt lat="44.11232" lon="6.63788">
        <ele>2022.270508</ele>
        <time>2009-08-14T10:02:30Z</time>
      </trkpt>
      <trkpt lat="44.11246" lon="6.63824">
        <ele>2027.077148</ele>
        <time>2009-08-14T10:03:05Z</time>
      </trkpt>
      <trkpt lat="44.11262" lon="6.63859">
        <ele>2032.844971</ele>
        <time>2009-08-14T10:03:42Z</time>
      </trkpt>
      <trkpt lat="44.11275" lon="6.63895">
        <ele>2037.651611</ele>
        <time>2009-08-14T10:04:16Z</time>
      </trkpt>
      <trkpt lat="44.11287" lon="6.63928">
        <ele>2042.938721</ele>
        <time>2009-08-14T10:04:54Z</time>
      </trkpt>
      <trkpt lat="44.11298" lon="6.63961">
        <ele>2047.745605</ele>
        <time>2009-08-14T10:05:28Z</time>
      </trkpt>
      <trkpt lat="44.11303" lon="6.64001">
        <ele>2053.032715</ele>
        <time>2009-08-14T10:06:11Z</time>
      </trkpt>
      <trkpt lat="44.1131" lon="6.64048">
        <ele>2060.723389</ele>
        <time>2009-08-14T10:06:58Z</time>
      </trkpt>
      <trkpt lat="44.11317" lon="6.64094">
        <ele>2066.491211</ele>
        <time>2009-08-14T10:07:27Z</time>
      </trkpt>
      <trkpt lat="44.11324" lon="6.64138">
        <ele>2070.336426</ele>
        <time>2009-08-14T10:08:37Z</time>
      </trkpt>
      <trkpt lat="44.11331" lon="6.6423">
        <ele>2083.314209</ele>
        <time>2009-08-14T10:09:56Z</time>
      </trkpt>
      <trkpt lat="44.11332" lon="6.64278">
        <ele>2090.043457</ele>
        <time>2009-08-14T10:10:31Z</time>
      </trkpt>
      <trkpt lat="44.11336" lon="6.64325">
        <ele>2096.292236</ele>
        <time>2009-08-14T10:11:05Z</time>
      </trkpt>
      <trkpt lat="44.11351" lon="6.64366">
        <ele>2102.059814</ele>
        <time>2009-08-14T10:11:37Z</time>
      </trkpt>
      <trkpt lat="44.11368" lon="6.64402">
        <ele>2106.866455</ele>
        <time>2009-08-14T10:12:09Z</time>
      </trkpt>
      <trkpt lat="44.11383" lon="6.64442">
        <ele>2112.634521</ele>
        <time>2009-08-14T10:12:43Z</time>
      </trkpt>
      <trkpt lat="44.11409" lon="6.64466">
        <ele>2117.921631</ele>
        <time>2009-08-14T10:13:15Z</time>
      </trkpt>
      <trkpt lat="44.11426" lon="6.64498">
        <ele>2122.247559</ele>
        <time>2009-08-14T10:13:50Z</time>
      </trkpt>
      <trkpt lat="44.11438" lon="6.64533">
        <ele>2127.534912</ele>
        <time>2009-08-14T10:14:26Z</time>
      </trkpt>
      <trkpt lat="44.11444" lon="6.64571">
        <ele>2132.822021</ele>
        <time>2009-08-14T10:15:05Z</time>
      </trkpt>
      <trkpt lat="44.11447" lon="6.64613">
        <ele>2138.109375</ele>
        <time>2009-08-14T10:15:42Z</time>
      </trkpt>
      <trkpt lat="44.1145" lon="6.64654">
        <ele>2142.435547</ele>
        <time>2009-08-14T10:16:20Z</time>
      </trkpt>
      <trkpt lat="44.11451" lon="6.64692">
        <ele>2148.203125</ele>
        <time>2009-08-14T10:16:59Z</time>
      </trkpt>
      <trkpt lat="44.11449" lon="6.64729">
        <ele>2153.490479</ele>
        <time>2009-08-14T10:17:35Z</time>
      </trkpt>
      <trkpt lat="44.11453" lon="6.64768">
        <ele>2158.297119</ele>
        <time>2009-08-14T10:18:57Z</time>
      </trkpt>
      <trkpt lat="44.11447" lon="6.64804">
        <ele>2162.142334</ele>
        <time>2009-08-14T10:19:28Z</time>
      </trkpt>
      <trkpt lat="44.11438" lon="6.64839">
        <ele>2166.948975</ele>
        <time>2009-08-14T10:20:02Z</time>
      </trkpt>
      <trkpt lat="44.11433" lon="6.64877">
        <ele>2171.274658</ele>
        <time>2009-08-14T10:20:36Z</time>
      </trkpt>
      <trkpt lat="44.11434" lon="6.64919">
        <ele>2176.081543</ele>
        <time>2009-08-14T10:21:12Z</time>
      </trkpt>
      <trkpt lat="44.11438" lon="6.6496">
        <ele>2178.965332</ele>
        <time>2009-08-14T10:21:40Z</time>
      </trkpt>
      <trkpt lat="44.11442" lon="6.64989">
        <ele>2181.368652</ele>
        <time>2009-08-14T10:21:55Z</time>
      </trkpt>
      <trkpt lat="44.11447" lon="6.65041">
        <ele>2183.29126</ele>
        <time>2009-08-14T10:22:20Z</time>
      </trkpt>
      <trkpt lat="44.11448" lon="6.6508">
        <ele>2184.733398</ele>
        <time>2009-08-14T10:30:31Z</time>
      </trkpt>
      <trkpt lat="44.11448" lon="6.65117">
        <ele>2186.175293</ele>
        <time>2009-08-14T10:31:00Z</time>
      </trkpt>
      <trkpt lat="44.11447" lon="6.65151">
        <ele>2188.098145</ele>
        <time>2009-08-14T10:34:13Z</time>
      </trkpt>
      <trkpt lat="44.11459" lon="6.65187">
        <ele>2188.098145</ele>
        <time>2009-08-14T10:34:32Z</time>
      </trkpt>
      <trkpt lat="44.11464" lon="6.65225">
        <ele>2187.617188</ele>
        <time>2009-08-14T10:34:44Z</time>
      </trkpt>
      <trkpt lat="44.11459" lon="6.65262">
        <ele>2189.059326</ele>
        <time>2009-08-14T10:34:59Z</time>
      </trkpt>
      <trkpt lat="44.11445" lon="6.65297">
        <ele>2190.020752</ele>
        <time>2009-08-14T10:35:14Z</time>
      </trkpt>
      <trkpt lat="44.11429" lon="6.65328">
        <ele>2191.943359</ele>
        <time>2009-08-14T10:35:30Z</time>
      </trkpt>
      <trkpt lat="44.11436" lon="6.65358">
        <ele>2194.346436</ele>
        <time>2009-08-14T10:35:48Z</time>
      </trkpt>
      <trkpt lat="44.11456" lon="6.65385">
        <ele>2195.307861</ele>
        <time>2009-08-14T10:36:06Z</time>
      </trkpt>
      <trkpt lat="44.11449" lon="6.65415">
        <ele>2197.711182</ele>
        <time>2009-08-14T10:36:26Z</time>
      </trkpt>
      <trkpt lat="44.11425" lon="6.65433">
        <ele>2199.633789</ele>
        <time>2009-08-14T10:36:47Z</time>
      </trkpt>
      <trkpt lat="44.11424" lon="6.65461">
        <ele>2202.517578</ele>
        <time>2009-08-14T10:37:10Z</time>
      </trkpt>
      <trkpt lat="44.11443" lon="6.65487">
        <ele>2205.401855</ele>
        <time>2009-08-14T10:37:32Z</time>
      </trkpt>
      <trkpt lat="44.11464" lon="6.6551">
        <ele>2207.805176</ele>
        <time>2009-08-14T10:37:53Z</time>
      </trkpt>
      <trkpt lat="44.1146" lon="6.65536">
        <ele>2211.650391</ele>
        <time>2009-08-14T10:38:16Z</time>
      </trkpt>
      <trkpt lat="44.11476" lon="6.65565">
        <ele>2213.572754</ele>
        <time>2009-08-14T10:38:37Z</time>
      </trkpt>
      <trkpt lat="44.115" lon="6.65579">
        <ele>2214.53418</ele>
        <time>2009-08-14T10:38:55Z</time>
      </trkpt>
      <trkpt lat="44.11527" lon="6.65584">
        <ele>2215.014893</ele>
        <time>2009-08-14T10:39:13Z</time>
      </trkpt>
      <trkpt lat="44.11553" lon="6.65596">
        <ele>2215.976074</ele>
        <time>2009-08-14T10:39:32Z</time>
      </trkpt>
      <trkpt lat="44.11579" lon="6.65598">
        <ele>2218.860107</ele>
        <time>2009-08-14T10:39:52Z</time>
      </trkpt>
      <trkpt lat="44.11603" lon="6.65612">
        <ele>2221.263428</ele>
        <time>2009-08-14T10:40:14Z</time>
      </trkpt>
      <trkpt lat="44.11625" lon="6.65636">
        <ele>2224.147461</ele>
        <time>2009-08-14T10:40:36Z</time>
      </trkpt>
      <trkpt lat="44.11651" lon="6.65642">
        <ele>2226.070068</ele>
        <time>2009-08-14T10:40:55Z</time>
      </trkpt>
      <trkpt lat="44.11673" lon="6.65633">
        <ele>2225.108643</ele>
        <time>2009-08-14T10:52:33Z</time>
      </trkpt>
      <trkpt lat="44.11698" lon="6.65629">
        <ele>2220.302246</ele>
        <time>2009-08-14T10:55:34Z</time>
      </trkpt>
      <trkpt lat="44.11723" lon="6.65639">
        <ele>2212.611572</ele>
        <time>2009-08-14T10:55:46Z</time>
      </trkpt>
      <trkpt lat="44.11751" lon="6.6565">
        <ele>2208.766357</ele>
        <time>2009-08-14T10:55:53Z</time>
      </trkpt>
      <trkpt lat="44.1178" lon="6.65655">
        <ele>2204.921143</ele>
        <time>2009-08-14T10:56:02Z</time>
      </trkpt>
      <trkpt lat="44.11807" lon="6.65664">
        <ele>2202.998291</ele>
        <time>2009-08-14T10:56:14Z</time>
      </trkpt>
      <trkpt lat="44.11831" lon="6.65672">
        <ele>2197.230469</ele>
        <time>2009-08-14T10:57:29Z</time>
      </trkpt>
      <trkpt lat="44.11848" lon="6.65648">
        <ele>2199.633789</ele>
        <time>2009-08-14T10:57:53Z</time>
      </trkpt>
      <trkpt lat="44.11864" lon="6.65618">
        <ele>2200.594971</ele>
        <time>2009-08-14T10:58:50Z</time>
      </trkpt>
      <trkpt lat="44.11879" lon="6.65586">
        <ele>2196.269287</ele>
        <time>2009-08-14T10:59:02Z</time>
      </trkpt>
      <trkpt lat="44.1189" lon="6.65551">
        <ele>2190.501221</ele>
        <time>2009-08-14T10:59:13Z</time>
      </trkpt>
      <trkpt lat="44.11904" lon="6.65516">
        <ele>2184.733398</ele>
        <time>2009-08-14T10:59:28Z</time>
      </trkpt>
      <trkpt lat="44.11923" lon="6.65483">
        <ele>2179.926758</ele>
        <time>2009-08-14T10:59:39Z</time>
      </trkpt>
      <trkpt lat="44.11944" lon="6.65458">
        <ele>2174.639648</ele>
        <time>2009-08-14T10:59:46Z</time>
      </trkpt>
      <trkpt lat="44.11949" lon="6.65448">
        <ele>2168.871582</ele>
        <time>2009-08-14T11:01:17Z</time>
      </trkpt>
      <trkpt lat="44.1192" lon="6.65452">
        <ele>2164.545654</ele>
        <time>2009-08-14T11:01:29Z</time>
      </trkpt>
      <trkpt lat="44.11895" lon="6.65464">
        <ele>2157.81665</ele>
        <time>2009-08-14T11:01:41Z</time>
      </trkpt>
      <trkpt lat="44.11884" lon="6.65457">
        <ele>2152.529053</ele>
        <time>2009-08-14T11:04:15Z</time>
      </trkpt>
      <trkpt lat="44.11901" lon="6.65429">
        <ele>2148.683838</ele>
        <time>2009-08-14T11:04:28Z</time>
      </trkpt>
      <trkpt lat="44.1192" lon="6.65402">
        <ele>2142.916016</ele>
        <time>2009-08-14T11:04:38Z</time>
      </trkpt>
      <trkpt lat="44.11943" lon="6.65375">
        <ele>2138.109375</ele>
        <time>2009-08-14T11:04:48Z</time>
      </trkpt>
      <trkpt lat="44.11966" lon="6.65351">
        <ele>2132.822021</ele>
        <time>2009-08-14T11:04:57Z</time>
      </trkpt>
      <trkpt lat="44.11989" lon="6.65328">
        <ele>2127.534912</ele>
        <time>2009-08-14T11:05:06Z</time>
      </trkpt>
      <trkpt lat="44.11965" lon="6.65326">
        <ele>2121.286133</ele>
        <time>2009-08-14T11:05:19Z</time>
      </trkpt>
      <trkpt lat="44.11938" lon="6.6533">
        <ele>2115.999023</ele>
        <time>2009-08-14T11:05:27Z</time>
      </trkpt>
      <trkpt lat="44.11939" lon="6.65319">
        <ele>2111.192627</ele>
        <time>2009-08-14T11:05:43Z</time>
      </trkpt>
      <trkpt lat="44.11983" lon="6.65269">
        <ele>2100.137451</ele>
        <time>2009-08-14T11:06:01Z</time>
      </trkpt>
      <trkpt lat="44.12003" lon="6.65238">
        <ele>2095.330811</ele>
        <time>2009-08-14T11:06:09Z</time>
      </trkpt>
      <trkpt lat="44.12024" lon="6.65212">
        <ele>2089.562744</ele>
        <time>2009-08-14T11:06:18Z</time>
      </trkpt>
      <trkpt lat="44.11999" lon="6.6521">
        <ele>2083.314209</ele>
        <time>2009-08-14T11:06:29Z</time>
      </trkpt>
      <trkpt lat="44.11971" lon="6.65221">
        <ele>2078.0271</ele>
        <time>2009-08-14T11:06:35Z</time>
      </trkpt>
      <trkpt lat="44.1192" lon="6.65246">
        <ele>2069.375244</ele>
        <time>2009-08-14T11:06:51Z</time>
      </trkpt>
      <trkpt lat="44.11934" lon="6.65217">
        <ele>2062.165283</ele>
        <time>2009-08-14T11:07:14Z</time>
      </trkpt>
      <trkpt lat="44.11978" lon="6.65154">
        <ele>2052.071289</ele>
        <time>2009-08-14T11:07:31Z</time>
      </trkpt>
      <trkpt lat="44.12002" lon="6.65125">
        <ele>2047.264893</ele>
        <time>2009-08-14T11:07:40Z</time>
      </trkpt>
      <trkpt lat="44.12028" lon="6.651">
        <ele>2041.496826</ele>
        <time>2009-08-14T11:07:50Z</time>
      </trkpt>
      <trkpt lat="44.12052" lon="6.65078">
        <ele>2035.729004</ele>
        <time>2009-08-14T11:07:59Z</time>
      </trkpt>
      <trkpt lat="44.12066" lon="6.65061">
        <ele>2030.441895</ele>
        <time>2009-08-14T11:08:12Z</time>
      </trkpt>
      <trkpt lat="44.12011" lon="6.65067">
        <ele>2018.906006</ele>
        <time>2009-08-14T11:08:27Z</time>
      </trkpt>
      <trkpt lat="44.11982" lon="6.6507">
        <ele>2013.618652</ele>
        <time>2009-08-14T11:08:34Z</time>
      </trkpt>
      <trkpt lat="44.11952" lon="6.6508">
        <ele>2007.370117</ele>
        <time>2009-08-14T11:08:41Z</time>
      </trkpt>
      <trkpt lat="44.11968" lon="6.65051">
        <ele>1997.276367</ele>
        <time>2009-08-14T11:09:03Z</time>
      </trkpt>
      <trkpt lat="44.11992" lon="6.65026">
        <ele>1990.546875</ele>
        <time>2009-08-14T11:09:10Z</time>
      </trkpt>
      <trkpt lat="44.12018" lon="6.65003">
        <ele>1985.259766</ele>
        <time>2009-08-14T11:09:17Z</time>
      </trkpt>
      <trkpt lat="44.12095" lon="6.64933">
        <ele>1969.398193</ele>
        <time>2009-08-14T11:09:38Z</time>
      </trkpt>
      <trkpt lat="44.12126" lon="6.64887">
        <ele>1957.862305</ele>
        <time>2009-08-14T11:09:54Z</time>
      </trkpt>
      <trkpt lat="44.12097" lon="6.64899">
        <ele>1952.574951</ele>
        <time>2009-08-14T11:10:00Z</time>
      </trkpt>
      <trkpt lat="44.1205" lon="6.649">
        <ele>1938.635986</ele>
        <time>2009-08-14T11:11:21Z</time>
      </trkpt>
      <trkpt lat="44.11944" lon="6.649">
        <ele>1919.890137</ele>
        <time>2009-08-14T11:12:08Z</time>
      </trkpt>
      <trkpt lat="44.11967" lon="6.64886">
        <ele>1913.641357</ele>
        <time>2009-08-14T11:12:18Z</time>
      </trkpt>
      <trkpt lat="44.12013" lon="6.64837">
        <ele>1900.18335</ele>
        <time>2009-08-14T11:12:44Z</time>
      </trkpt>
      <trkpt lat="44.12039" lon="6.64809">
        <ele>1893.453857</ele>
        <time>2009-08-14T11:12:54Z</time>
      </trkpt>
      <trkpt lat="44.12098" lon="6.64487">
        <ele>1855.481934</ele>
        <time>2009-08-14T11:13:50Z</time>
      </trkpt>
      <trkpt lat="44.12141" lon="6.64454">
        <ele>1846.349365</ele>
        <time>2009-08-14T11:14:46Z</time>
      </trkpt>
      <trkpt lat="44.1216" lon="6.64461">
        <ele>1847.310547</ele>
        <time>2009-08-14T11:19:25Z</time>
      </trkpt>
      <trkpt lat="44.12225" lon="6.64546">
        <ele>1852.5979</ele>
        <time>2009-08-14T11:20:26Z</time>
      </trkpt>
      <trkpt lat="44.12255" lon="6.64648">
        <ele>1855.001221</ele>
        <time>2009-08-14T11:20:46Z</time>
      </trkpt>
      <trkpt lat="44.12268" lon="6.6474">
        <ele>1860.28833</ele>
        <time>2009-08-14T11:21:25Z</time>
      </trkpt>
      <trkpt lat="44.12266" lon="6.64785">
        <ele>1862.210938</ele>
        <time>2009-08-14T11:21:43Z</time>
      </trkpt>
      <trkpt lat="44.12267" lon="6.64832">
        <ele>1864.133545</ele>
        <time>2009-08-14T11:21:59Z</time>
      </trkpt>
      <trkpt lat="44.12266" lon="6.6493">
        <ele>1867.017578</ele>
        <time>2009-08-14T11:22:25Z</time>
      </trkpt>
      <trkpt lat="44.12267" lon="6.64975">
        <ele>1869.901611</ele>
        <time>2009-08-14T11:22:40Z</time>
      </trkpt>
      <trkpt lat="44.12318" lon="6.6488">
        <ele>1866.056152</ele>
        <time>2009-08-14T11:24:11Z</time>
      </trkpt>
      <trkpt lat="44.12378" lon="6.64872">
        <ele>1867.498047</ele>
        <time>2009-08-14T11:24:26Z</time>
      </trkpt>
      <trkpt lat="44.12466" lon="6.65056">
        <ele>1885.282715</ele>
        <time>2009-08-14T11:26:08Z</time>
      </trkpt>
      <trkpt lat="44.12485" lon="6.6509">
        <ele>1885.763428</ele>
        <time>2009-08-14T11:26:26Z</time>
      </trkpt>
      <trkpt lat="44.12499" lon="6.65132">
        <ele>1887.686035</ele>
        <time>2009-08-14T11:26:44Z</time>
      </trkpt>
      <trkpt lat="44.12518" lon="6.65171">
        <ele>1888.647461</ele>
        <time>2009-08-14T11:26:57Z</time>
      </trkpt>
      <trkpt lat="44.12583" lon="6.65193">
        <ele>1889.12793</ele>
        <time>2009-08-14T11:29:29Z</time>
      </trkpt>
      <trkpt lat="44.1257" lon="6.65151">
        <ele>1888.647461</ele>
        <time>2009-08-14T11:29:40Z</time>
      </trkpt>
      <trkpt lat="44.12561" lon="6.65125">
        <ele>1887.686035</ele>
        <time>2009-08-14T11:29:50Z</time>
      </trkpt>
      <trkpt lat="44.12573" lon="6.65091">
        <ele>1887.205322</ele>
        <time>2009-08-14T11:29:58Z</time>
      </trkpt>
      <trkpt lat="44.12595" lon="6.65057">
        <ele>1886.724609</ele>
        <time>2009-08-14T11:30:06Z</time>
      </trkpt>
      <trkpt lat="44.12614" lon="6.64942">
        <ele>1887.205322</ele>
        <time>2009-08-14T11:30:27Z</time>
      </trkpt>
      <trkpt lat="44.12619" lon="6.64903">
        <ele>1887.205322</ele>
        <time>2009-08-14T11:30:35Z</time>
      </trkpt>
      <trkpt lat="44.12638" lon="6.64925">
        <ele>1888.647461</ele>
        <time>2009-08-14T11:30:44Z</time>
      </trkpt>
      <trkpt lat="44.12698" lon="6.64943">
        <ele>1888.647461</ele>
        <time>2009-08-14T11:33:27Z</time>
      </trkpt>
      <trkpt lat="44.12718" lon="6.64885">
        <ele>1888.166748</ele>
        <time>2009-08-14T11:34:37Z</time>
      </trkpt>
      <trkpt lat="44.12731" lon="6.64859">
        <ele>1887.686035</ele>
        <time>2009-08-14T11:34:51Z</time>
      </trkpt>
      <trkpt lat="44.12764" lon="6.64881">
        <ele>1888.647461</ele>
        <time>2009-08-14T11:35:22Z</time>
      </trkpt>
      <trkpt lat="44.1278" lon="6.64858">
        <ele>1888.166748</ele>
        <time>2009-08-14T11:35:57Z</time>
      </trkpt>
      <trkpt lat="44.12768" lon="6.64833">
        <ele>1888.166748</ele>
        <time>2009-08-14T11:36:16Z</time>
      </trkpt>
      <trkpt lat="44.12761" lon="6.64797">
        <ele>1888.166748</ele>
        <time>2009-08-14T11:36:29Z</time>
      </trkpt>
      <trkpt lat="44.12755" lon="6.6476">
        <ele>1888.166748</ele>
        <time>2009-08-14T11:36:47Z</time>
      </trkpt>
      <trkpt lat="44.1275" lon="6.64725">
        <ele>1888.647461</ele>
        <time>2009-08-14T11:36:56Z</time>
      </trkpt>
      <trkpt lat="44.12748" lon="6.64686">
        <ele>1887.686035</ele>
        <time>2009-08-14T11:37:04Z</time>
      </trkpt>
      <trkpt lat="44.12755" lon="6.64649">
        <ele>1888.166748</ele>
        <time>2009-08-14T11:37:13Z</time>
      </trkpt>
      <trkpt lat="44.12758" lon="6.645">
        <ele>1891.050537</ele>
        <time>2009-08-14T11:37:54Z</time>
      </trkpt>
      <trkpt lat="44.12782" lon="6.64474">
        <ele>1891.050537</ele>
        <time>2009-08-14T11:38:02Z</time>
      </trkpt>
      <trkpt lat="44.12741" lon="6.64329">
        <ele>1890.089355</ele>
        <time>2009-08-14T11:39:57Z</time>
      </trkpt>
      <trkpt lat="44.12673" lon="6.64222">
        <ele>1887.205322</ele>
        <time>2009-08-14T11:40:24Z</time>
      </trkpt>
      <trkpt lat="44.12695" lon="6.64171">
        <ele>1886.244141</ele>
        <time>2009-08-14T11:40:48Z</time>
      </trkpt>
      <trkpt lat="44.1272" lon="6.64143">
        <ele>1885.763428</ele>
        <time>2009-08-14T11:40:58Z</time>
      </trkpt>
      <trkpt lat="44.12827" lon="6.64032">
        <ele>1884.802246</ele>
        <time>2009-08-14T11:41:22Z</time>
      </trkpt>
      <trkpt lat="44.12838" lon="6.64015">
        <ele>1883.840576</ele>
        <time>2009-08-14T11:41:41Z</time>
      </trkpt>
      <trkpt lat="44.12886" lon="6.63921">
        <ele>1881.917969</ele>
        <time>2009-08-14T11:42:11Z</time>
      </trkpt>
      <trkpt lat="44.12922" lon="6.63831">
        <ele>1880.476074</ele>
        <time>2009-08-14T11:42:22Z</time>
      </trkpt>
      <trkpt lat="44.12937" lon="6.63817">
        <ele>1879.995361</ele>
        <time>2009-08-14T11:44:02Z</time>
      </trkpt>
      <trkpt lat="44.12948" lon="6.63853">
        <ele>1880.956787</ele>
        <time>2009-08-14T11:44:13Z</time>
      </trkpt>
      <trkpt lat="44.13001" lon="6.63884">
        <ele>1883.359863</ele>
        <time>2009-08-14T11:44:42Z</time>
      </trkpt>
      <trkpt lat="44.1303" lon="6.63908">
        <ele>1883.840576</ele>
        <time>2009-08-14T11:44:56Z</time>
      </trkpt>
      <trkpt lat="44.1308" lon="6.63958">
        <ele>1885.763428</ele>
        <time>2009-08-14T11:45:22Z</time>
      </trkpt>
      <trkpt lat="44.13129" lon="6.64019">
        <ele>1888.647461</ele>
        <time>2009-08-14T11:45:58Z</time>
      </trkpt>
      <trkpt lat="44.13156" lon="6.64043">
        <ele>1889.608643</ele>
        <time>2009-08-14T11:46:13Z</time>
      </trkpt>
      <trkpt lat="44.13185" lon="6.64065">
        <ele>1890.569824</ele>
        <time>2009-08-14T11:46:28Z</time>
      </trkpt>
      <trkpt lat="44.13217" lon="6.64101">
        <ele>1892.011963</ele>
        <time>2009-08-14T11:46:45Z</time>
      </trkpt>
      <trkpt lat="44.13242" lon="6.64129">
        <ele>1892.973145</ele>
        <time>2009-08-14T11:46:58Z</time>
      </trkpt>
      <trkpt lat="44.13269" lon="6.64161">
        <ele>1894.415039</ele>
        <time>2009-08-14T11:47:14Z</time>
      </trkpt>
      <trkpt lat="44.13327" lon="6.64263">
        <ele>1897.779785</ele>
        <time>2009-08-14T11:47:54Z</time>
      </trkpt>
      <trkpt lat="44.13351" lon="6.64291">
        <ele>1899.702393</ele>
        <time>2009-08-14T11:48:08Z</time>
      </trkpt>
      <trkpt lat="44.13373" lon="6.64312">
        <ele>1899.702393</ele>
        <time>2009-08-14T11:48:20Z</time>
      </trkpt>
      <trkpt lat="44.1339" lon="6.64354">
        <ele>1901.625244</ele>
        <time>2009-08-14T11:49:28Z</time>
      </trkpt>
      <trkpt lat="44.1341" lon="6.64357">
        <ele>1902.586426</ele>
        <time>2009-08-14T11:49:54Z</time>
      </trkpt>
      <trkpt lat="44.13447" lon="6.64339">
        <ele>1904.989746</ele>
        <time>2009-08-14T11:51:00Z</time>
      </trkpt>
      <trkpt lat="44.13538" lon="6.64246">
        <ele>1907.873779</ele>
        <time>2009-08-14T11:52:05Z</time>
      </trkpt>
      <trkpt lat="44.13577" lon="6.64251">
        <ele>1908.354248</ele>
        <time>2009-08-14T11:52:18Z</time>
      </trkpt>
      <trkpt lat="44.13594" lon="6.64278">
        <ele>1909.796143</ele>
        <time>2009-08-14T11:52:36Z</time>
      </trkpt>
      <trkpt lat="44.13612" lon="6.6425">
        <ele>1910.757568</ele>
        <time>2009-08-14T11:53:13Z</time>
      </trkpt>
      <trkpt lat="44.13632" lon="6.64212">
        <ele>1911.238281</ele>
        <time>2009-08-14T11:53:28Z</time>
      </trkpt>
      <trkpt lat="44.13657" lon="6.6419">
        <ele>1911.718994</ele>
        <time>2009-08-14T11:53:43Z</time>
      </trkpt>
      <trkpt lat="44.13679" lon="6.64165">
        <ele>1913.160889</ele>
        <time>2009-08-14T11:53:59Z</time>
      </trkpt>
      <trkpt lat="44.13708" lon="6.64153">
        <ele>1914.12207</ele>
        <time>2009-08-14T11:54:19Z</time>
      </trkpt>
      <trkpt lat="44.13732" lon="6.64136">
        <ele>1914.602783</ele>
        <time>2009-08-14T11:54:35Z</time>
      </trkpt>
      <trkpt lat="44.13759" lon="6.64121">
        <ele>1916.044922</ele>
        <time>2009-08-14T11:55:59Z</time>
      </trkpt>
      <trkpt lat="44.13748" lon="6.64092">
        <ele>1916.525635</ele>
        <time>2009-08-14T11:56:29Z</time>
      </trkpt>
      <trkpt lat="44.13717" lon="6.64027">
        <ele>1918.448242</ele>
        <time>2009-08-14T11:56:55Z</time>
      </trkpt>
      <trkpt lat="44.13709" lon="6.63948">
        <ele>1919.409668</ele>
        <time>2009-08-14T11:57:19Z</time>
      </trkpt>
      <trkpt lat="44.13731" lon="6.63917">
        <ele>1919.890137</ele>
        <time>2009-08-14T11:57:31Z</time>
      </trkpt>
      <trkpt lat="44.13757" lon="6.63891">
        <ele>1920.37085</ele>
        <time>2009-08-14T11:57:41Z</time>
      </trkpt>
      <trkpt lat="44.13793" lon="6.63829">
        <ele>1919.890137</ele>
        <time>2009-08-14T11:58:02Z</time>
      </trkpt>
      <trkpt lat="44.13812" lon="6.63802">
        <ele>1920.37085</ele>
        <time>2009-08-14T11:58:15Z</time>
      </trkpt>
      <trkpt lat="44.13821" lon="6.63767">
        <ele>1920.851563</ele>
        <time>2009-08-14T11:58:38Z</time>
      </trkpt>
      <trkpt lat="44.13833" lon="6.63737">
        <ele>1920.851563</ele>
        <time>2009-08-14T11:59:24Z</time>
      </trkpt>
      <trkpt lat="44.13819" lon="6.63732">
        <ele>1922.77417</ele>
        <time>2009-08-14T12:00:16Z</time>
      </trkpt>
      <trkpt lat="44.13788" lon="6.63723">
        <ele>1923.254883</ele>
        <time>2009-08-14T12:00:31Z</time>
      </trkpt>
      <trkpt lat="44.13762" lon="6.63721">
        <ele>1924.216064</ele>
        <time>2009-08-14T12:00:44Z</time>
      </trkpt>
      <trkpt lat="44.13739" lon="6.6369">
        <ele>1925.177246</ele>
        <time>2009-08-14T12:01:01Z</time>
      </trkpt>
      <trkpt lat="44.1372" lon="6.63644">
        <ele>1925.657959</ele>
        <time>2009-08-14T12:01:14Z</time>
      </trkpt>
      <trkpt lat="44.13703" lon="6.63605">
        <ele>1926.138672</ele>
        <time>2009-08-14T12:01:25Z</time>
      </trkpt>
      <trkpt lat="44.13693" lon="6.6356">
        <ele>1927.100098</ele>
        <time>2009-08-14T12:01:37Z</time>
      </trkpt>
      <trkpt lat="44.13676" lon="6.63526">
        <ele>1928.061279</ele>
        <time>2009-08-14T12:01:48Z</time>
      </trkpt>
      <trkpt lat="44.13664" lon="6.63481">
        <ele>1929.022461</ele>
        <time>2009-08-14T12:02:02Z</time>
      </trkpt>
      <trkpt lat="44.13676" lon="6.63442">
        <ele>1929.503174</ele>
        <time>2009-08-14T12:02:15Z</time>
      </trkpt>
      <trkpt lat="44.13732" lon="6.6341">
        <ele>1931.906494</ele>
        <time>2009-08-14T12:02:38Z</time>
      </trkpt>
      <trkpt lat="44.13756" lon="6.63382">
        <ele>1932.86792</ele>
        <time>2009-08-14T12:02:50Z</time>
      </trkpt>
      <trkpt lat="44.13806" lon="6.63328">
        <ele>1935.27124</ele>
        <time>2009-08-14T12:03:16Z</time>
      </trkpt>
      <trkpt lat="44.13831" lon="6.63302">
        <ele>1935.751953</ele>
        <time>2009-08-14T12:03:28Z</time>
      </trkpt>
      <trkpt lat="44.13858" lon="6.63282">
        <ele>1936.713135</ele>
        <time>2009-08-14T12:03:40Z</time>
      </trkpt>
      <trkpt lat="44.13889" lon="6.63269">
        <ele>1937.674561</ele>
        <time>2009-08-14T12:04:04Z</time>
      </trkpt>
      <trkpt lat="44.13912" lon="6.63247">
        <ele>1938.635986</ele>
        <time>2009-08-14T12:04:16Z</time>
      </trkpt>
      <trkpt lat="44.13937" lon="6.63226">
        <ele>1939.597168</ele>
        <time>2009-08-14T12:04:28Z</time>
      </trkpt>
      <trkpt lat="44.13962" lon="6.63206">
        <ele>1939.597168</ele>
        <time>2009-08-14T12:04:39Z</time>
      </trkpt>
      <trkpt lat="44.13984" lon="6.6319">
        <ele>1940.55835</ele>
        <time>2009-08-14T12:05:03Z</time>
      </trkpt>
      <trkpt lat="44.13972" lon="6.6316">
        <ele>1941.519775</ele>
        <time>2009-08-14T12:05:50Z</time>
      </trkpt>
      <trkpt lat="44.13966" lon="6.63136">
        <ele>1941.519775</ele>
        <time>2009-08-14T12:06:06Z</time>
      </trkpt>
      <trkpt lat="44.13946" lon="6.63103">
        <ele>1942.481201</ele>
        <time>2009-08-14T12:06:19Z</time>
      </trkpt>
      <trkpt lat="44.1393" lon="6.63069">
        <ele>1942.481201</ele>
        <time>2009-08-14T12:06:30Z</time>
      </trkpt>
      <trkpt lat="44.1392" lon="6.63035">
        <ele>1942.481201</ele>
        <time>2009-08-14T12:06:40Z</time>
      </trkpt>
      <trkpt lat="44.13912" lon="6.63003">
        <ele>1941.519775</ele>
        <time>2009-08-14T12:06:51Z</time>
      </trkpt>
      <trkpt lat="44.13902" lon="6.62971">
        <ele>1941.519775</ele>
        <time>2009-08-14T12:07:02Z</time>
      </trkpt>
      <trkpt lat="44.1389" lon="6.62936">
        <ele>1941.519775</ele>
        <time>2009-08-14T12:07:17Z</time>
      </trkpt>
      <trkpt lat="44.13874" lon="6.62905">
        <ele>1942.000488</ele>
        <time>2009-08-14T12:07:32Z</time>
      </trkpt>
      <trkpt lat="44.13868" lon="6.62865">
        <ele>1942.481201</ele>
        <time>2009-08-14T12:07:44Z</time>
      </trkpt>
      <trkpt lat="44.13865" lon="6.62828">
        <ele>1942.000488</ele>
        <time>2009-08-14T12:07:55Z</time>
      </trkpt>
      <trkpt lat="44.13854" lon="6.62795">
        <ele>1942.481201</ele>
        <time>2009-08-14T12:08:06Z</time>
      </trkpt>
      <trkpt lat="44.13843" lon="6.62765">
        <ele>1943.923096</ele>
        <time>2009-08-14T12:09:53Z</time>
      </trkpt>
      <trkpt lat="44.13814" lon="6.62747">
        <ele>1944.403564</ele>
        <time>2009-08-14T12:10:11Z</time>
      </trkpt>
      <trkpt lat="44.13806" lon="6.62715">
        <ele>1943.442383</ele>
        <time>2009-08-14T12:10:21Z</time>
      </trkpt>
      <trkpt lat="44.13806" lon="6.62679">
        <ele>1943.442383</ele>
        <time>2009-08-14T12:10:33Z</time>
      </trkpt>
      <trkpt lat="44.13806" lon="6.62642">
        <ele>1943.442383</ele>
        <time>2009-08-14T12:10:45Z</time>
      </trkpt>
      <trkpt lat="44.1382" lon="6.62612">
        <ele>1945.845703</ele>
        <time>2009-08-14T12:10:58Z</time>
      </trkpt>
      <trkpt lat="44.13811" lon="6.62574">
        <ele>1945.36499</ele>
        <time>2009-08-14T12:11:12Z</time>
      </trkpt>
      <trkpt lat="44.13821" lon="6.62543">
        <ele>1945.36499</ele>
        <time>2009-08-14T12:11:24Z</time>
      </trkpt>
      <trkpt lat="44.13812" lon="6.6251">
        <ele>1944.884277</ele>
        <time>2009-08-14T12:11:49Z</time>
      </trkpt>
      <trkpt lat="44.1379" lon="6.62483">
        <ele>1945.845703</ele>
        <time>2009-08-14T12:12:00Z</time>
      </trkpt>
      <trkpt lat="44.13781" lon="6.62446">
        <ele>1945.845703</ele>
        <time>2009-08-14T12:12:10Z</time>
      </trkpt>
      <trkpt lat="44.13754" lon="6.62435">
        <ele>1945.36499</ele>
        <time>2009-08-14T12:12:47Z</time>
      </trkpt>
      <trkpt lat="44.13733" lon="6.62407">
        <ele>1945.36499</ele>
        <time>2009-08-14T12:12:58Z</time>
      </trkpt>
      <trkpt lat="44.13704" lon="6.62394">
        <ele>1946.326416</ele>
        <time>2009-08-14T12:13:10Z</time>
      </trkpt>
      <trkpt lat="44.13676" lon="6.62394">
        <ele>1945.36499</ele>
        <time>2009-08-14T12:13:18Z</time>
      </trkpt>
      <trkpt lat="44.13651" lon="6.62395">
        <ele>1944.884277</ele>
        <time>2009-08-14T12:14:35Z</time>
      </trkpt>
      <trkpt lat="44.13622" lon="6.62379">
        <ele>1944.884277</ele>
        <time>2009-08-14T12:14:46Z</time>
      </trkpt>
      <trkpt lat="44.1363" lon="6.6237">
        <ele>1948.249023</ele>
        <time>2009-08-14T12:15:19Z</time>
      </trkpt>
      <trkpt lat="44.13657" lon="6.62375">
        <ele>1953.055664</ele>
        <time>2009-08-14T12:15:38Z</time>
      </trkpt>
      <trkpt lat="44.13685" lon="6.6237">
        <ele>1956.900879</ele>
        <time>2009-08-14T12:15:59Z</time>
      </trkpt>
      <trkpt lat="44.13712" lon="6.62366">
        <ele>1960.265381</ele>
        <time>2009-08-14T12:16:28Z</time>
      </trkpt>
      <trkpt lat="44.13738" lon="6.62368">
        <ele>1964.591553</ele>
        <time>2009-08-14T12:17:01Z</time>
      </trkpt>
      <trkpt lat="44.13763" lon="6.62387">
        <ele>1968.436768</ele>
        <time>2009-08-14T12:17:33Z</time>
      </trkpt>
      <trkpt lat="44.13785" lon="6.62402">
        <ele>1970.840088</ele>
        <time>2009-08-14T12:18:05Z</time>
      </trkpt>
      <trkpt lat="44.13767" lon="6.62372">
        <ele>1976.60791</ele>
        <time>2009-08-14T12:18:44Z</time>
      </trkpt>
      <trkpt lat="44.13746" lon="6.62345">
        <ele>1981.414551</ele>
        <time>2009-08-14T12:19:19Z</time>
      </trkpt>
      <trkpt lat="44.13722" lon="6.62325">
        <ele>1987.182373</ele>
        <time>2009-08-14T12:19:58Z</time>
      </trkpt>
      <trkpt lat="44.13699" lon="6.62309">
        <ele>1991.027588</ele>
        <time>2009-08-14T12:20:39Z</time>
      </trkpt>
      <trkpt lat="44.1372" lon="6.6231">
        <ele>1994.872803</ele>
        <time>2009-08-14T12:21:15Z</time>
      </trkpt>
      <trkpt lat="44.13747" lon="6.62316">
        <ele>1998.718262</ele>
        <time>2009-08-14T12:21:51Z</time>
      </trkpt>
      <trkpt lat="44.13773" lon="6.62329">
        <ele>2003.044189</ele>
        <time>2009-08-14T12:22:26Z</time>
      </trkpt>
      <trkpt lat="44.13798" lon="6.62344">
        <ele>2005.44751</ele>
        <time>2009-08-14T12:23:01Z</time>
      </trkpt>
      <trkpt lat="44.13796" lon="6.62335">
        <ele>2010.253906</ele>
        <time>2009-08-14T12:23:39Z</time>
      </trkpt>
      <trkpt lat="44.13773" lon="6.62308">
        <ele>2015.060791</ele>
        <time>2009-08-14T12:24:17Z</time>
      </trkpt>
      <trkpt lat="44.13751" lon="6.62283">
        <ele>2019.386719</ele>
        <time>2009-08-14T12:24:42Z</time>
      </trkpt>
      <trkpt lat="44.13768" lon="6.62283">
        <ele>2023.712402</ele>
        <time>2009-08-14T12:25:35Z</time>
      </trkpt>
      <trkpt lat="44.13793" lon="6.62295">
        <ele>2028.519287</ele>
        <time>2009-08-14T12:26:08Z</time>
      </trkpt>
      <trkpt lat="44.1382" lon="6.62308">
        <ele>2033.325684</ele>
        <time>2009-08-14T12:26:44Z</time>
      </trkpt>
      <trkpt lat="44.13846" lon="6.62315">
        <ele>2037.651611</ele>
        <time>2009-08-14T12:27:16Z</time>
      </trkpt>
      <trkpt lat="44.13871" lon="6.62333">
        <ele>2042.458252</ele>
        <time>2009-08-14T12:27:59Z</time>
      </trkpt>
      <trkpt lat="44.13894" lon="6.62356">
        <ele>2047.264893</ele>
        <time>2009-08-14T12:28:37Z</time>
      </trkpt>
      <trkpt lat="44.13917" lon="6.62376">
        <ele>2051.110107</ele>
        <time>2009-08-14T12:29:15Z</time>
      </trkpt>
      <trkpt lat="44.13938" lon="6.624">
        <ele>2057.358643</ele>
        <time>2009-08-14T12:29:58Z</time>
      </trkpt>
      <trkpt lat="44.13954" lon="6.62432">
        <ele>2062.165283</ele>
        <time>2009-08-14T12:30:37Z</time>
      </trkpt>
      <trkpt lat="44.13971" lon="6.62455">
        <ele>2066.971924</ele>
        <time>2009-08-14T12:31:25Z</time>
      </trkpt>
      <trkpt lat="44.13976" lon="6.62492">
        <ele>2066.010498</ele>
        <time>2009-08-14T12:41:20Z</time>
      </trkpt>
      <trkpt lat="44.13978" lon="6.62531">
        <ele>2067.933105</ele>
        <time>2009-08-14T12:41:39Z</time>
      </trkpt>
      <trkpt lat="44.13979" lon="6.62569">
        <ele>2069.375244</ele>
        <time>2009-08-14T12:42:02Z</time>
      </trkpt>
      <trkpt lat="44.13984" lon="6.62607">
        <ele>2068.894531</ele>
        <time>2009-08-14T12:42:26Z</time>
      </trkpt>
      <trkpt lat="44.13989" lon="6.62649">
        <ele>2067.933105</ele>
        <time>2009-08-14T12:42:42Z</time>
      </trkpt>
      <trkpt lat="44.13999" lon="6.62689">
        <ele>2067.933105</ele>
        <time>2009-08-14T12:42:57Z</time>
      </trkpt>
      <trkpt lat="44.14016" lon="6.62722">
        <ele>2069.375244</ele>
        <time>2009-08-14T12:43:18Z</time>
      </trkpt>
      <trkpt lat="44.1404" lon="6.6274">
        <ele>2073.220459</ele>
        <time>2009-08-14T12:43:38Z</time>
      </trkpt>
      <trkpt lat="44.14066" lon="6.62747">
        <ele>2076.104492</ele>
        <time>2009-08-14T12:44:04Z</time>
      </trkpt>
      <trkpt lat="44.14092" lon="6.62737">
        <ele>2078.988281</ele>
        <time>2009-08-14T12:44:36Z</time>
      </trkpt>
      <trkpt lat="44.1412" lon="6.62728">
        <ele>2079.468994</ele>
        <time>2009-08-14T12:45:02Z</time>
      </trkpt>
      <trkpt lat="44.14145" lon="6.62716">
        <ele>2079.949707</ele>
        <time>2009-08-14T12:45:30Z</time>
      </trkpt>
      <trkpt lat="44.14173" lon="6.62709">
        <ele>2081.872314</ele>
        <time>2009-08-14T12:45:59Z</time>
      </trkpt>
      <trkpt lat="44.14201" lon="6.62698">
        <ele>2082.353027</ele>
        <time>2009-08-14T12:46:29Z</time>
      </trkpt>
      <trkpt lat="44.14229" lon="6.62697">
        <ele>2083.794922</ele>
        <time>2009-08-14T12:47:07Z</time>
      </trkpt>
      <trkpt lat="44.14257" lon="6.62709">
        <ele>2077.065918</ele>
        <time>2009-08-14T12:48:23Z</time>
      </trkpt>
      <trkpt lat="44.14284" lon="6.62732">
        <ele>2070.817139</ele>
        <time>2009-08-14T12:48:32Z</time>
      </trkpt>
      <trkpt lat="44.1431" lon="6.6275">
        <ele>2063.607178</ele>
        <time>2009-08-14T12:48:40Z</time>
      </trkpt>
      <trkpt lat="44.14337" lon="6.62766">
        <ele>2056.87793</ele>
        <time>2009-08-14T12:48:47Z</time>
      </trkpt>
      <trkpt lat="44.14364" lon="6.6278">
        <ele>2052.552002</ele>
        <time>2009-08-14T12:48:55Z</time>
      </trkpt>
      <trkpt lat="44.14389" lon="6.62792">
        <ele>2046.303711</ele>
        <time>2009-08-14T12:49:04Z</time>
      </trkpt>
      <trkpt lat="44.14415" lon="6.62788">
        <ele>2042.458252</ele>
        <time>2009-08-14T12:49:41Z</time>
      </trkpt>
      <trkpt lat="44.14432" lon="6.62754">
        <ele>2041.016113</ele>
        <time>2009-08-14T12:49:51Z</time>
      </trkpt>
      <trkpt lat="44.14457" lon="6.62732">
        <ele>2037.651611</ele>
        <time>2009-08-14T12:49:59Z</time>
      </trkpt>
      <trkpt lat="44.14481" lon="6.62717">
        <ele>2034.287109</ele>
        <time>2009-08-14T12:50:06Z</time>
      </trkpt>
      <trkpt lat="44.14494" lon="6.62681">
        <ele>2032.364502</ele>
        <time>2009-08-14T12:50:16Z</time>
      </trkpt>
      <trkpt lat="44.145" lon="6.6264">
        <ele>2030.922607</ele>
        <time>2009-08-14T12:50:25Z</time>
      </trkpt>
      <trkpt lat="44.14506" lon="6.62603">
        <ele>2029.480469</ele>
        <time>2009-08-14T12:50:31Z</time>
      </trkpt>
      <trkpt lat="44.14508" lon="6.62565">
        <ele>2028.999756</ele>
        <time>2009-08-14T12:50:39Z</time>
      </trkpt>
      <trkpt lat="44.14523" lon="6.62531">
        <ele>2026.115723</ele>
        <time>2009-08-14T12:50:47Z</time>
      </trkpt>
      <trkpt lat="44.14544" lon="6.62505">
        <ele>2024.673828</ele>
        <time>2009-08-14T12:50:54Z</time>
      </trkpt>
      <trkpt lat="44.14565" lon="6.62477">
        <ele>2019.386719</ele>
        <time>2009-08-14T12:51:05Z</time>
      </trkpt>
      <trkpt lat="44.14589" lon="6.62463">
        <ele>2018.906006</ele>
        <time>2009-08-14T12:51:34Z</time>
      </trkpt>
      <trkpt lat="44.14606" lon="6.62445">
        <ele>2016.983398</ele>
        <time>2009-08-14T12:51:45Z</time>
      </trkpt>
      <trkpt lat="44.14599" lon="6.62438">
        <ele>2011.215332</ele>
        <time>2009-08-14T12:52:54Z</time>
      </trkpt>
      <trkpt lat="44.14579" lon="6.62432">
        <ele>2003.524902</ele>
        <time>2009-08-14T12:53:31Z</time>
      </trkpt>
      <trkpt lat="44.14552" lon="6.62438">
        <ele>1996.795654</ele>
        <time>2009-08-14T12:53:42Z</time>
      </trkpt>
      <trkpt lat="44.14526" lon="6.62449">
        <ele>1995.834229</ele>
        <time>2009-08-14T12:54:05Z</time>
      </trkpt>
      <trkpt lat="44.14495" lon="6.6245">
        <ele>1992.950195</ele>
        <time>2009-08-14T12:54:13Z</time>
      </trkpt>
      <trkpt lat="44.14471" lon="6.62434">
        <ele>1989.10498</ele>
        <time>2009-08-14T12:54:19Z</time>
      </trkpt>
      <trkpt lat="44.14448" lon="6.62416">
        <ele>1982.856445</ele>
        <time>2009-08-14T12:55:13Z</time>
      </trkpt>
      <trkpt lat="44.14464" lon="6.62389">
        <ele>1975.165771</ele>
        <time>2009-08-14T12:55:25Z</time>
      </trkpt>
      <trkpt lat="44.14442" lon="6.62365">
        <ele>1969.398193</ele>
        <time>2009-08-14T12:55:33Z</time>
      </trkpt>
      <trkpt lat="44.14428" lon="6.62345">
        <ele>1963.629883</ele>
        <time>2009-08-14T12:55:43Z</time>
      </trkpt>
      <trkpt lat="44.14452" lon="6.62326">
        <ele>1957.862305</ele>
        <time>2009-08-14T12:56:25Z</time>
      </trkpt>
      <trkpt lat="44.14472" lon="6.62312">
        <ele>1950.652344</ele>
        <time>2009-08-14T12:56:39Z</time>
      </trkpt>
      <trkpt lat="44.14495" lon="6.62292">
        <ele>1938.155273</ele>
        <time>2009-08-14T12:56:58Z</time>
      </trkpt>
      <trkpt lat="44.14506" lon="6.62281">
        <ele>1931.906494</ele>
        <time>2009-08-14T12:57:26Z</time>
      </trkpt>
      <trkpt lat="44.14517" lon="6.62254">
        <ele>1926.138672</ele>
        <time>2009-08-14T12:57:52Z</time>
      </trkpt>
      <trkpt lat="44.14533" lon="6.62216">
        <ele>1921.812744</ele>
        <time>2009-08-14T12:58:12Z</time>
      </trkpt>
      <trkpt lat="44.14549" lon="6.62185">
        <ele>1919.890137</ele>
        <time>2009-08-14T12:58:24Z</time>
      </trkpt>
      <trkpt lat="44.14568" lon="6.62155">
        <ele>1916.044922</ele>
        <time>2009-08-14T12:58:33Z</time>
      </trkpt>
      <trkpt lat="44.14593" lon="6.62138">
        <ele>1908.354248</ele>
        <time>2009-08-14T12:58:46Z</time>
      </trkpt>
      <trkpt lat="44.14616" lon="6.62113">
        <ele>1900.663818</ele>
        <time>2009-08-14T12:58:56Z</time>
      </trkpt>
      <trkpt lat="44.14639" lon="6.62088">
        <ele>1893.93457</ele>
        <time>2009-08-14T12:59:06Z</time>
      </trkpt>
      <trkpt lat="44.14664" lon="6.62068">
        <ele>1887.686035</ele>
        <time>2009-08-14T12:59:15Z</time>
      </trkpt>
      <trkpt lat="44.14691" lon="6.62049">
        <ele>1881.437256</ele>
        <time>2009-08-14T12:59:24Z</time>
      </trkpt>
      <trkpt lat="44.14717" lon="6.62032">
        <ele>1873.746826</ele>
        <time>2009-08-14T12:59:33Z</time>
      </trkpt>
      <trkpt lat="44.1473" lon="6.62016">
        <ele>1867.017578</ele>
        <time>2009-08-14T12:59:44Z</time>
      </trkpt>
      <trkpt lat="44.14715" lon="6.61998">
        <ele>1859.327148</ele>
        <time>2009-08-14T13:00:37Z</time>
      </trkpt>
      <trkpt lat="44.14686" lon="6.61991">
        <ele>1852.117188</ele>
        <time>2009-08-14T13:00:48Z</time>
      </trkpt>
      <trkpt lat="44.14657" lon="6.6199">
        <ele>1846.349365</ele>
        <time>2009-08-14T13:00:56Z</time>
      </trkpt>
      <trkpt lat="44.1463" lon="6.61995">
        <ele>1846.349365</ele>
        <time>2009-08-14T13:01:03Z</time>
      </trkpt>
      <trkpt lat="44.14599" lon="6.61996">
        <ele>1844.907227</ele>
        <time>2009-08-14T13:01:11Z</time>
      </trkpt>
      <trkpt lat="44.1457" lon="6.61988">
        <ele>1841.062012</ele>
        <time>2009-08-14T13:01:19Z</time>
      </trkpt>
      <trkpt lat="44.14547" lon="6.61972">
        <ele>1834.332764</ele>
        <time>2009-08-14T13:01:30Z</time>
      </trkpt>
      <trkpt lat="44.14552" lon="6.61949">
        <ele>1827.603516</ele>
        <time>2009-08-14T13:01:41Z</time>
      </trkpt>
      <trkpt lat="44.14553" lon="6.61932">
        <ele>1819.912842</ele>
        <time>2009-08-14T13:01:57Z</time>
      </trkpt>
      <trkpt lat="44.14568" lon="6.6191">
        <ele>1813.664307</ele>
        <time>2009-08-14T13:02:11Z</time>
      </trkpt>
      <trkpt lat="44.14546" lon="6.61908">
        <ele>1808.85791</ele>
        <time>2009-08-14T13:02:20Z</time>
      </trkpt>
      <trkpt lat="44.14518" lon="6.61918">
        <ele>1804.051514</ele>
        <time>2009-08-14T13:02:28Z</time>
      </trkpt>
      <trkpt lat="44.14491" lon="6.61928">
        <ele>1795.399414</ele>
        <time>2009-08-14T13:02:41Z</time>
      </trkpt>
      <trkpt lat="44.14463" lon="6.61944">
        <ele>1789.150879</ele>
        <time>2009-08-14T13:02:50Z</time>
      </trkpt>
      <trkpt lat="44.14442" lon="6.61918">
        <ele>1788.67041</ele>
        <time>2009-08-14T13:03:50Z</time>
      </trkpt>
      <trkpt lat="44.14496" lon="6.61701">
        <ele>1780.499023</ele>
        <time>2009-08-14T13:04:29Z</time>
      </trkpt>
      <trkpt lat="44.14523" lon="6.61656">
        <ele>1781.460205</ele>
        <time>2009-08-14T13:04:37Z</time>
      </trkpt>
      <trkpt lat="44.14563" lon="6.61595">
        <ele>1783.382813</ele>
        <time>2009-08-14T13:04:58Z</time>
      </trkpt>
      <trkpt lat="44.14573" lon="6.61561">
        <ele>1785.30542</ele>
        <time>2009-08-14T13:05:14Z</time>
      </trkpt>
      <trkpt lat="44.14596" lon="6.61484">
        <ele>1786.266846</ele>
        <time>2009-08-14T13:05:41Z</time>
      </trkpt>
      <trkpt lat="44.1458" lon="6.61456">
        <ele>1785.786133</ele>
        <time>2009-08-14T13:05:56Z</time>
      </trkpt>
      <trkpt lat="44.14565" lon="6.61435">
        <ele>1779.056885</ele>
        <time>2009-08-14T13:06:06Z</time>
      </trkpt>
      <trkpt lat="44.14564" lon="6.61411">
        <ele>1774.731201</ele>
        <time>2009-08-14T13:06:19Z</time>
      </trkpt>
      <trkpt lat="44.14559" lon="6.61373">
        <ele>1765.11792</ele>
        <time>2009-08-14T13:06:31Z</time>
      </trkpt>
      <trkpt lat="44.14545" lon="6.61354">
        <ele>1755.504639</ele>
        <time>2009-08-14T13:06:46Z</time>
      </trkpt>
      <trkpt lat="44.14531" lon="6.61332">
        <ele>1743.488281</ele>
        <time>2009-08-14T13:07:04Z</time>
      </trkpt>
      <trkpt lat="44.14505" lon="6.61318">
        <ele>1735.316895</ele>
        <time>2009-08-14T13:07:13Z</time>
      </trkpt>
      <trkpt lat="44.14479" lon="6.61314">
        <ele>1727.145996</ele>
        <time>2009-08-14T13:07:21Z</time>
      </trkpt>
      <trkpt lat="44.14451" lon="6.61314">
        <ele>1718.013184</ele>
        <time>2009-08-14T13:07:31Z</time>
      </trkpt>
      <trkpt lat="44.14424" lon="6.61295">
        <ele>1706.958008</ele>
        <time>2009-08-14T13:07:40Z</time>
      </trkpt>
      <trkpt lat="44.144" lon="6.61274">
        <ele>1699.748291</ele>
        <time>2009-08-14T13:07:49Z</time>
      </trkpt>
      <trkpt lat="44.14378" lon="6.61254">
        <ele>1692.057861</ele>
        <time>2009-08-14T13:07:58Z</time>
      </trkpt>
      <trkpt lat="44.14339" lon="6.61196">
        <ele>1675.715088</ele>
        <time>2009-08-14T13:08:16Z</time>
      </trkpt>
      <trkpt lat="44.1433" lon="6.61176">
        <ele>1666.102051</ele>
        <time>2009-08-14T13:08:30Z</time>
      </trkpt>
      <trkpt lat="44.14304" lon="6.61166">
        <ele>1660.814941</ele>
        <time>2009-08-14T13:08:38Z</time>
      </trkpt>
      <trkpt lat="44.14277" lon="6.61169">
        <ele>1653.60498</ele>
        <time>2009-08-14T13:08:47Z</time>
      </trkpt>
      <trkpt lat="44.14249" lon="6.61174">
        <ele>1643.510986</ele>
        <time>2009-08-14T13:08:55Z</time>
      </trkpt>
      <trkpt lat="44.14221" lon="6.61133">
        <ele>1634.859375</ele>
        <time>2009-08-14T13:10:20Z</time>
      </trkpt>
      <trkpt lat="44.14225" lon="6.61115">
        <ele>1625.726563</ele>
        <time>2009-08-14T13:10:36Z</time>
      </trkpt>
      <trkpt lat="44.14198" lon="6.61109">
        <ele>1616.113525</ele>
        <time>2009-08-14T13:10:47Z</time>
      </trkpt>
      <trkpt lat="44.14166" lon="6.61111">
        <ele>1607.942383</ele>
        <time>2009-08-14T13:10:55Z</time>
      </trkpt>
      <trkpt lat="44.14149" lon="6.61102">
        <ele>1599.77124</ele>
        <time>2009-08-14T13:11:05Z</time>
      </trkpt>
      <trkpt lat="44.14131" lon="6.61088">
        <ele>1589.196533</ele>
        <time>2009-08-14T13:11:20Z</time>
      </trkpt>
      <trkpt lat="44.14136" lon="6.61051">
        <ele>1577.660645</ele>
        <time>2009-08-14T13:11:32Z</time>
      </trkpt>
      <trkpt lat="44.14141" lon="6.61019">
        <ele>1569.489746</ele>
        <time>2009-08-14T13:11:43Z</time>
      </trkpt>
      <trkpt lat="44.14148" lon="6.60981">
        <ele>1560.356934</ele>
        <time>2009-08-14T13:11:53Z</time>
      </trkpt>
      <trkpt lat="44.14123" lon="6.60987">
        <ele>1554.108643</ele>
        <time>2009-08-14T13:12:01Z</time>
      </trkpt>
      <trkpt lat="44.1411" lon="6.60981">
        <ele>1545.937256</ele>
        <time>2009-08-14T13:12:13Z</time>
      </trkpt>
      <trkpt lat="44.14087" lon="6.61004">
        <ele>1540.649902</ele>
        <time>2009-08-14T13:12:24Z</time>
      </trkpt>
      <trkpt lat="44.14074" lon="6.61001">
        <ele>1540.169434</ele>
        <time>2009-08-14T13:12:53Z</time>
      </trkpt>
      <trkpt lat="44.1405" lon="6.60925">
        <ele>1525.268799</ele>
        <time>2009-08-14T13:13:13Z</time>
      </trkpt>
      <trkpt lat="44.14043" lon="6.60899">
        <ele>1515.655762</ele>
        <time>2009-08-14T13:13:34Z</time>
      </trkpt>
      <trkpt lat="44.14024" lon="6.6089">
        <ele>1507.003906</ele>
        <time>2009-08-14T13:13:52Z</time>
      </trkpt>
      <trkpt lat="44.13995" lon="6.6089">
        <ele>1501.236084</ele>
        <time>2009-08-14T13:14:01Z</time>
      </trkpt>
      <trkpt lat="44.1398" lon="6.60861">
        <ele>1494.026123</ele>
        <time>2009-08-14T13:14:12Z</time>
      </trkpt>
      <trkpt lat="44.13967" lon="6.60826">
        <ele>1486.335693</ele>
        <time>2009-08-14T13:14:20Z</time>
      </trkpt>
      <trkpt lat="44.13975" lon="6.60816">
        <ele>1479.606201</ele>
        <time>2009-08-14T13:14:29Z</time>
      </trkpt>
      <trkpt lat="44.13961" lon="6.60776">
        <ele>1472.877197</ele>
        <time>2009-08-14T13:14:35Z</time>
      </trkpt>
      <trkpt lat="44.13948" lon="6.60741">
        <ele>1467.5896</ele>
        <time>2009-08-14T13:14:41Z</time>
      </trkpt>
      <trkpt lat="44.13974" lon="6.60551">
        <ele>1437.30835</ele>
        <time>2009-08-14T13:15:20Z</time>
      </trkpt>
      <trkpt lat="44.13983" lon="6.60506">
        <ele>1430.098389</ele>
        <time>2009-08-14T13:15:27Z</time>
      </trkpt>
      <trkpt lat="44.13997" lon="6.60473">
        <ele>1420.966064</ele>
        <time>2009-08-14T13:15:35Z</time>
      </trkpt>
      <trkpt lat="44.14083" lon="6.6042">
        <ele>1399.816895</ele>
        <time>2009-08-14T13:15:55Z</time>
      </trkpt>
      <trkpt lat="44.14109" lon="6.60402">
        <ele>1391.645752</ele>
        <time>2009-08-14T13:16:02Z</time>
      </trkpt>
      <trkpt lat="44.14114" lon="6.60366">
        <ele>1386.358398</ele>
        <time>2009-08-14T13:16:08Z</time>
      </trkpt>
      <trkpt lat="44.14139" lon="6.60339">
        <ele>1380.109863</ele>
        <time>2009-08-14T13:16:13Z</time>
      </trkpt>
      <trkpt lat="44.1413" lon="6.60332">
        <ele>1380.109863</ele>
        <time>2009-08-14T13:18:54Z</time>
      </trkpt>
      <trkpt lat="44.14099" lon="6.60324">
        <ele>1382.993652</ele>
        <time>2009-08-14T13:19:13Z</time>
      </trkpt>
      <trkpt lat="44.1408" lon="6.60299">
        <ele>1381.071289</ele>
        <time>2009-08-14T13:19:30Z</time>
      </trkpt>
      <trkpt lat="44.1405" lon="6.60277">
        <ele>1377.226074</ele>
        <time>2009-08-14T13:19:39Z</time>
      </trkpt>
      <trkpt lat="44.13968" lon="6.60229">
        <ele>1366.170654</ele>
        <time>2009-08-14T13:19:58Z</time>
      </trkpt>
      <trkpt lat="44.13941" lon="6.60206">
        <ele>1366.170654</ele>
        <time>2009-08-14T13:20:07Z</time>
      </trkpt>
      <trkpt lat="44.13903" lon="6.60203">
        <ele>1372.900146</ele>
        <time>2009-08-14T13:20:30Z</time>
      </trkpt>
      <trkpt lat="44.13865" lon="6.602">
        <ele>1377.226074</ele>
        <time>2009-08-14T13:20:58Z</time>
      </trkpt>
      <trkpt lat="44.13833" lon="6.60195">
        <ele>1377.226074</ele>
        <time>2009-08-14T13:21:20Z</time>
      </trkpt>
      <trkpt lat="44.13771" lon="6.60163">
        <ele>1376.745361</ele>
        <time>2009-08-14T13:21:49Z</time>
      </trkpt>
      <trkpt lat="44.13744" lon="6.6014">
        <ele>1370.977295</ele>
        <time>2009-08-14T13:21:59Z</time>
      </trkpt>
      <trkpt lat="44.13711" lon="6.60114">
        <ele>1369.5354</ele>
        <time>2009-08-14T13:22:08Z</time>
      </trkpt>
      <trkpt lat="44.13682" lon="6.60096">
        <ele>1368.093262</ele>
        <time>2009-08-14T13:22:15Z</time>
      </trkpt>
      <trkpt lat="44.13616" lon="6.60062">
        <ele>1359.44165</ele>
        <time>2009-08-14T13:22:30Z</time>
      </trkpt>
      <trkpt lat="44.1359" lon="6.60061">
        <ele>1355.596191</ele>
        <time>2009-08-14T13:22:38Z</time>
      </trkpt>
      <trkpt lat="44.13558" lon="6.60057">
        <ele>1350.309082</ele>
        <time>2009-08-14T13:22:46Z</time>
      </trkpt>
      <trkpt lat="44.13467" lon="6.59958">
        <ele>1322.430664</ele>
        <time>2009-08-14T13:23:18Z</time>
      </trkpt>
      <trkpt lat="44.13441" lon="6.59935">
        <ele>1317.624023</ele>
        <time>2009-08-14T13:23:24Z</time>
      </trkpt>
      <trkpt lat="44.13378" lon="6.59907">
        <ele>1311.375732</ele>
        <time>2009-08-14T13:23:50Z</time>
      </trkpt>
      <trkpt lat="44.13319" lon="6.59877">
        <ele>1312.817627</ele>
        <time>2009-08-14T13:24:19Z</time>
      </trkpt>
      <trkpt lat="44.13292" lon="6.59857">
        <ele>1310.89502</ele>
        <time>2009-08-14T13:24:31Z</time>
      </trkpt>
      <trkpt lat="44.13277" lon="6.59818">
        <ele>1306.568848</ele>
        <time>2009-08-14T13:24:38Z</time>
      </trkpt>
      <trkpt lat="44.13258" lon="6.59785">
        <ele>1304.165771</ele>
        <time>2009-08-14T13:24:43Z</time>
      </trkpt>
      <trkpt lat="44.13227" lon="6.59778">
        <ele>1304.64624</ele>
        <time>2009-08-14T13:24:49Z</time>
      </trkpt>
      <trkpt lat="44.13167" lon="6.59778">
        <ele>1308.01123</ele>
        <time>2009-08-14T13:25:21Z</time>
      </trkpt>
      <trkpt lat="44.13136" lon="6.59779">
        <ele>1308.01123</ele>
        <time>2009-08-14T13:25:33Z</time>
      </trkpt>
      <trkpt lat="44.1311" lon="6.59798">
        <ele>1310.414307</ele>
        <time>2009-08-14T13:25:44Z</time>
      </trkpt>
      <trkpt lat="44.13082" lon="6.59814">
        <ele>1308.972412</ele>
        <time>2009-08-14T13:25:53Z</time>
      </trkpt>
      <trkpt lat="44.13054" lon="6.59833">
        <ele>1308.01123</ele>
        <time>2009-08-14T13:25:59Z</time>
      </trkpt>
      <trkpt lat="44.13027" lon="6.59845">
        <ele>1308.01123</ele>
        <time>2009-08-14T13:26:06Z</time>
      </trkpt>
      <trkpt lat="44.12997" lon="6.59847">
        <ele>1306.568848</ele>
        <time>2009-08-14T13:26:13Z</time>
      </trkpt>
      <trkpt lat="44.12962" lon="6.59848">
        <ele>1302.24292</ele>
        <time>2009-08-14T13:26:18Z</time>
      </trkpt>
      <trkpt lat="44.12931" lon="6.59852">
        <ele>1300.801025</ele>
        <time>2009-08-14T13:26:22Z</time>
      </trkpt>
      <trkpt lat="44.12905" lon="6.59862">
        <ele>1297.436523</ele>
        <time>2009-08-14T13:26:27Z</time>
      </trkpt>
      <trkpt lat="44.12873" lon="6.59856">
        <ele>1296.955811</ele>
        <time>2009-08-14T13:27:46Z</time>
      </trkpt>
      <trkpt lat="44.12859" lon="6.59811">
        <ele>1293.591309</ele>
        <time>2009-08-14T13:27:51Z</time>
      </trkpt>
      <trkpt lat="44.12853" lon="6.59773">
        <ele>1291.187744</ele>
        <time>2009-08-14T13:27:55Z</time>
      </trkpt>
      <trkpt lat="44.12882" lon="6.59752">
        <ele>1288.784668</ele>
        <time>2009-08-14T13:28:00Z</time>
      </trkpt>
      <trkpt lat="44.12912" lon="6.59736">
        <ele>1287.823242</ele>
        <time>2009-08-14T13:28:04Z</time>
      </trkpt>
      <trkpt lat="44.12944" lon="6.59717">
        <ele>1284.939453</ele>
        <time>2009-08-14T13:28:08Z</time>
      </trkpt>
      <trkpt lat="44.12975" lon="6.59699">
        <ele>1279.6521</ele>
        <time>2009-08-14T13:28:12Z</time>
      </trkpt>
      <trkpt lat="44.12972" lon="6.59669">
        <ele>1275.806641</ele>
        <time>2009-08-14T13:28:17Z</time>
      </trkpt>
      <trkpt lat="44.12925" lon="6.59627">
        <ele>1269.55835</ele>
        <time>2009-08-14T13:28:26Z</time>
      </trkpt>
      <trkpt lat="44.12949" lon="6.59597">
        <ele>1266.193604</ele>
        <time>2009-08-14T13:28:31Z</time>
      </trkpt>
      <trkpt lat="44.12982" lon="6.59592">
        <ele>1264.270996</ele>
        <time>2009-08-14T13:28:35Z</time>
      </trkpt>
      <trkpt lat="44.13013" lon="6.59599">
        <ele>1261.387207</ele>
        <time>2009-08-14T13:28:38Z</time>
      </trkpt>
      <trkpt lat="44.13045" lon="6.59599">
        <ele>1260.425781</ele>
        <time>2009-08-14T13:28:41Z</time>
      </trkpt>
      <trkpt lat="44.13078" lon="6.59583">
        <ele>1257.061035</ele>
        <time>2009-08-14T13:28:44Z</time>
      </trkpt>
      <trkpt lat="44.13154" lon="6.59559">
        <ele>1252.735107</ele>
        <time>2009-08-14T13:28:50Z</time>
      </trkpt>
      <trkpt lat="44.13185" lon="6.59554">
        <ele>1247.928711</ele>
        <time>2009-08-14T13:28:53Z</time>
      </trkpt>
      <trkpt lat="44.13212" lon="6.59539">
        <ele>1242.160645</ele>
        <time>2009-08-14T13:28:58Z</time>
      </trkpt>
      <trkpt lat="44.13182" lon="6.59531">
        <ele>1240.238037</ele>
        <time>2009-08-14T13:29:06Z</time>
      </trkpt>
      <trkpt lat="44.13152" lon="6.5952">
        <ele>1238.796143</ele>
        <time>2009-08-14T13:29:11Z</time>
      </trkpt>
      <trkpt lat="44.13127" lon="6.595">
        <ele>1237.354004</ele>
        <time>2009-08-14T13:29:15Z</time>
      </trkpt>
      <trkpt lat="44.13095" lon="6.59482">
        <ele>1235.431396</ele>
        <time>2009-08-14T13:29:19Z</time>
      </trkpt>
      <trkpt lat="44.1306" lon="6.59469">
        <ele>1234.470215</ele>
        <time>2009-08-14T13:29:23Z</time>
      </trkpt>
      <trkpt lat="44.13023" lon="6.59457">
        <ele>1232.547607</ele>
        <time>2009-08-14T13:29:27Z</time>
      </trkpt>
      <trkpt lat="44.12987" lon="6.59444">
        <ele>1231.105713</ele>
        <time>2009-08-14T13:29:31Z</time>
      </trkpt>
      <trkpt lat="44.1296" lon="6.59434">
        <ele>1228.702393</ele>
        <time>2009-08-14T13:29:34Z</time>
      </trkpt>
      <trkpt lat="44.12932" lon="6.59445">
        <ele>1226.779541</ele>
        <time>2009-08-14T13:29:37Z</time>
      </trkpt>
      <trkpt lat="44.129" lon="6.59453">
        <ele>1224.856934</ele>
        <time>2009-08-14T13:29:40Z</time>
      </trkpt>
      <trkpt lat="44.12869" lon="6.5946">
        <ele>1222.453613</ele>
        <time>2009-08-14T13:29:43Z</time>
      </trkpt>
      <trkpt lat="44.12856" lon="6.59451">
        <ele>1216.685791</ele>
        <time>2009-08-14T13:29:48Z</time>
      </trkpt>
      <trkpt lat="44.12885" lon="6.59432">
        <ele>1214.282471</ele>
        <time>2009-08-14T13:29:53Z</time>
      </trkpt>
      <trkpt lat="44.12913" lon="6.59414">
        <ele>1213.321289</ele>
        <time>2009-08-14T13:29:57Z</time>
      </trkpt>
      <trkpt lat="44.12939" lon="6.59387">
        <ele>1210.917725</ele>
        <time>2009-08-14T13:30:01Z</time>
      </trkpt>
      <trkpt lat="44.12951" lon="6.59362">
        <ele>1208.514404</ele>
        <time>2009-08-14T13:30:07Z</time>
      </trkpt>
      <trkpt lat="44.12955" lon="6.5932">
        <ele>1204.188721</ele>
        <time>2009-08-14T13:30:12Z</time>
      </trkpt>
      <trkpt lat="44.12968" lon="6.59278">
        <ele>1200.343506</ele>
        <time>2009-08-14T13:30:17Z</time>
      </trkpt>
      <trkpt lat="44.12985" lon="6.59248">
        <ele>1197.940186</ele>
        <time>2009-08-14T13:30:21Z</time>
      </trkpt>
      <trkpt lat="44.1299" lon="6.59215">
        <ele>1196.97876</ele>
        <time>2009-08-14T13:30:27Z</time>
      </trkpt>
      <trkpt lat="44.12966" lon="6.59196">
        <ele>1196.498291</ele>
        <time>2009-08-14T13:30:34Z</time>
      </trkpt>
      <trkpt lat="44.12952" lon="6.59164">
        <ele>1194.575195</ele>
        <time>2009-08-14T13:30:41Z</time>
      </trkpt>
      <trkpt lat="44.12933" lon="6.59201">
        <ele>1192.172119</ele>
        <time>2009-08-14T13:30:48Z</time>
      </trkpt>
      <trkpt lat="44.1291" lon="6.5923">
        <ele>1190.72998</ele>
        <time>2009-08-14T13:30:52Z</time>
      </trkpt>
      <trkpt lat="44.12888" lon="6.59257">
        <ele>1191.210693</ele>
        <time>2009-08-14T13:30:57Z</time>
      </trkpt>
      <trkpt lat="44.12862" lon="6.59257">
        <ele>1192.652832</ele>
        <time>2009-08-14T13:31:08Z</time>
      </trkpt>
      <trkpt lat="44.12858" lon="6.59213">
        <ele>1191.210693</ele>
        <time>2009-08-14T13:31:16Z</time>
      </trkpt>
      <trkpt lat="44.12852" lon="6.59171">
        <ele>1191.210693</ele>
        <time>2009-08-14T13:31:23Z</time>
      </trkpt>
      <trkpt lat="44.12857" lon="6.59127">
        <ele>1189.768799</ele>
        <time>2009-08-14T13:31:29Z</time>
      </trkpt>
      <trkpt lat="44.12862" lon="6.59081">
        <ele>1186.884766</ele>
        <time>2009-08-14T13:31:34Z</time>
      </trkpt>
      <trkpt lat="44.12872" lon="6.59041">
        <ele>1184.962402</ele>
        <time>2009-08-14T13:31:38Z</time>
      </trkpt>
      <trkpt lat="44.12872" lon="6.59">
        <ele>1184.000977</ele>
        <time>2009-08-14T13:31:42Z</time>
      </trkpt>
      <trkpt lat="44.1287" lon="6.5896">
        <ele>1185.923584</ele>
        <time>2009-08-14T13:31:53Z</time>
      </trkpt>
      <trkpt lat="44.12853" lon="6.5893">
        <ele>1186.884766</ele>
        <time>2009-08-14T13:32:05Z</time>
      </trkpt>
      <trkpt lat="44.12825" lon="6.58926">
        <ele>1187.846191</ele>
        <time>2009-08-14T13:32:16Z</time>
      </trkpt>
      <trkpt lat="44.12798" lon="6.58917">
        <ele>1189.768799</ele>
        <time>2009-08-14T13:32:26Z</time>
      </trkpt>
      <trkpt lat="44.12772" lon="6.58902">
        <ele>1189.288086</ele>
        <time>2009-08-14T13:32:35Z</time>
      </trkpt>
      <trkpt lat="44.12745" lon="6.58884">
        <ele>1189.768799</ele>
        <time>2009-08-14T13:33:05Z</time>
      </trkpt>
      <trkpt lat="44.12719" lon="6.58864">
        <ele>1188.326904</ele>
        <time>2009-08-14T13:33:13Z</time>
      </trkpt>
      <trkpt lat="44.12694" lon="6.58846">
        <ele>1187.846191</ele>
        <time>2009-08-14T13:33:18Z</time>
      </trkpt>
      <trkpt lat="44.12662" lon="6.58823">
        <ele>1184.000977</ele>
        <time>2009-08-14T13:33:23Z</time>
      </trkpt>
      <trkpt lat="44.12638" lon="6.58806">
        <ele>1181.597656</ele>
        <time>2009-08-14T13:33:26Z</time>
      </trkpt>
      <trkpt lat="44.12614" lon="6.58787">
        <ele>1180.636475</ele>
        <time>2009-08-14T13:33:29Z</time>
      </trkpt>
      <trkpt lat="44.12591" lon="6.58764">
        <ele>1178.23291</ele>
        <time>2009-08-14T13:33:32Z</time>
      </trkpt>
      <trkpt lat="44.12525" lon="6.58688">
        <ele>1176.791016</ele>
        <time>2009-08-14T13:33:41Z</time>
      </trkpt>
      <trkpt lat="44.12501" lon="6.58668">
        <ele>1177.271729</ele>
        <time>2009-08-14T13:33:45Z</time>
      </trkpt>
      <trkpt lat="44.12453" lon="6.58641">
        <ele>1177.752197</ele>
        <time>2009-08-14T13:33:55Z</time>
      </trkpt>
      <trkpt lat="44.12428" lon="6.58624">
        <ele>1177.271729</ele>
        <time>2009-08-14T13:34:01Z</time>
      </trkpt>
      <trkpt lat="44.1241" lon="6.58597">
        <ele>1175.82959</ele>
        <time>2009-08-14T13:34:06Z</time>
      </trkpt>
      <trkpt lat="44.12386" lon="6.58569">
        <ele>1173.906982</ele>
        <time>2009-08-14T13:34:11Z</time>
      </trkpt>
      <trkpt lat="44.12338" lon="6.58527">
        <ele>1169.100586</ele>
        <time>2009-08-14T13:34:19Z</time>
      </trkpt>
      <trkpt lat="44.12314" lon="6.58504">
        <ele>1166.697266</ele>
        <time>2009-08-14T13:34:23Z</time>
      </trkpt>
      <trkpt lat="44.12271" lon="6.58448">
        <ele>1164.293945</ele>
        <time>2009-08-14T13:34:32Z</time>
      </trkpt>
      <trkpt lat="44.12245" lon="6.58436">
        <ele>1162.371094</ele>
        <time>2009-08-14T13:34:36Z</time>
      </trkpt>
      <trkpt lat="44.12212" lon="6.58426">
        <ele>1158.525879</ele>
        <time>2009-08-14T13:34:41Z</time>
      </trkpt>
      <trkpt lat="44.12183" lon="6.58419">
        <ele>1155.161377</ele>
        <time>2009-08-14T13:34:45Z</time>
      </trkpt>
      <trkpt lat="44.12158" lon="6.58441">
        <ele>1154.680664</ele>
        <time>2009-08-14T13:34:50Z</time>
      </trkpt>
      <trkpt lat="44.12135" lon="6.58471">
        <ele>1154.680664</ele>
        <time>2009-08-14T13:34:55Z</time>
      </trkpt>
      <trkpt lat="44.12111" lon="6.58464">
        <ele>1154.200195</ele>
        <time>2009-08-14T13:35:00Z</time>
      </trkpt>
      <trkpt lat="44.12036" lon="6.58423">
        <ele>1146.98999</ele>
        <time>2009-08-14T13:35:16Z</time>
      </trkpt>
      <trkpt lat="44.12001" lon="6.58424">
        <ele>1146.028809</ele>
        <time>2009-08-14T13:35:20Z</time>
      </trkpt>
      <trkpt lat="44.11969" lon="6.58418">
        <ele>1144.58667</ele>
        <time>2009-08-14T13:35:24Z</time>
      </trkpt>
      <trkpt lat="44.11939" lon="6.58406">
        <ele>1143.625488</ele>
        <time>2009-08-14T13:35:28Z</time>
      </trkpt>
      <trkpt lat="44.11909" lon="6.58393">
        <ele>1143.144775</ele>
        <time>2009-08-14T13:35:32Z</time>
      </trkpt>
      <trkpt lat="44.11878" lon="6.58379">
        <ele>1142.664307</ele>
        <time>2009-08-14T13:35:36Z</time>
      </trkpt>
      <trkpt lat="44.11847" lon="6.58375">
        <ele>1141.702881</ele>
        <time>2009-08-14T13:35:40Z</time>
      </trkpt>
      <trkpt lat="44.11782" lon="6.58391">
        <ele>1139.780273</ele>
        <time>2009-08-14T13:35:48Z</time>
      </trkpt>
      <trkpt lat="44.11752" lon="6.58402">
        <ele>1138.819092</ele>
        <time>2009-08-14T13:35:52Z</time>
      </trkpt>
      <trkpt lat="44.11723" lon="6.5841">
        <ele>1138.819092</ele>
        <time>2009-08-14T13:35:56Z</time>
      </trkpt>
      <trkpt lat="44.11692" lon="6.58416">
        <ele>1138.819092</ele>
        <time>2009-08-14T13:36:01Z</time>
      </trkpt>
      <trkpt lat="44.11665" lon="6.58406">
        <ele>1139.299561</ele>
        <time>2009-08-14T13:36:07Z</time>
      </trkpt>
      <trkpt lat="44.11636" lon="6.584">
        <ele>1139.299561</ele>
        <time>2009-08-14T13:36:13Z</time>
      </trkpt>
      <trkpt lat="44.1161" lon="6.58395">
        <ele>1138.819092</ele>
        <time>2009-08-14T13:36:18Z</time>
      </trkpt>
      <trkpt lat="44.11586" lon="6.58372">
        <ele>1138.819092</ele>
        <time>2009-08-14T13:36:23Z</time>
      </trkpt>
      <trkpt lat="44.11563" lon="6.58346">
        <ele>1139.299561</ele>
        <time>2009-08-14T13:36:28Z</time>
      </trkpt>
      <trkpt lat="44.1154" lon="6.5832">
        <ele>1139.299561</ele>
        <time>2009-08-14T13:36:34Z</time>
      </trkpt>
      <trkpt lat="44.1151" lon="6.58307">
        <ele>1138.819092</ele>
        <time>2009-08-14T13:36:40Z</time>
      </trkpt>
      <trkpt lat="44.11479" lon="6.58306">
        <ele>1138.819092</ele>
        <time>2009-08-14T13:36:46Z</time>
      </trkpt>
      <trkpt lat="44.11452" lon="6.58317">
        <ele>1137.376953</ele>
        <time>2009-08-14T13:36:51Z</time>
      </trkpt>
      <trkpt lat="44.11424" lon="6.58317">
        <ele>1138.819092</ele>
        <time>2009-08-14T13:36:59Z</time>
      </trkpt>
      <trkpt lat="44.11412" lon="6.58284">
        <ele>1137.857666</ele>
        <time>2009-08-14T13:37:06Z</time>
      </trkpt>
      <trkpt lat="44.11401" lon="6.58248">
        <ele>1138.819092</ele>
        <time>2009-08-14T13:37:13Z</time>
      </trkpt>
      <trkpt lat="44.11383" lon="6.58212">
        <ele>1136.89624</ele>
        <time>2009-08-14T13:37:19Z</time>
      </trkpt>
      <trkpt lat="44.11364" lon="6.5818">
        <ele>1135.454346</ele>
        <time>2009-08-14T13:37:24Z</time>
      </trkpt>
      <trkpt lat="44.11337" lon="6.58153">
        <ele>1133.531738</ele>
        <time>2009-08-14T13:37:29Z</time>
      </trkpt>
      <trkpt lat="44.11312" lon="6.58142">
        <ele>1131.128418</ele>
        <time>2009-08-14T13:37:33Z</time>
      </trkpt>
      <trkpt lat="44.113" lon="6.58114">
        <ele>1126.321777</ele>
        <time>2009-08-14T13:37:41Z</time>
      </trkpt>
      <trkpt lat="44.11304" lon="6.58074">
        <ele>1123.918457</ele>
        <time>2009-08-14T13:37:46Z</time>
      </trkpt>
      <trkpt lat="44.11305" lon="6.58035">
        <ele>1124.39917</ele>
        <time>2009-08-14T13:37:52Z</time>
      </trkpt>
      <trkpt lat="44.11305" lon="6.57995">
        <ele>1123.918457</ele>
        <time>2009-08-14T13:37:59Z</time>
      </trkpt>
      <trkpt lat="44.11306" lon="6.57957">
        <ele>1123.437988</ele>
        <time>2009-08-14T13:38:07Z</time>
      </trkpt>
      <trkpt lat="44.11289" lon="6.57932">
        <ele>1122.957275</ele>
        <time>2009-08-14T13:39:06Z</time>
      </trkpt>
      <trkpt lat="44.1126" lon="6.57932">
        <ele>1122.957275</ele>
        <time>2009-08-14T13:39:12Z</time>
      </trkpt>
      <trkpt lat="44.11228" lon="6.5793">
        <ele>1122.957275</ele>
        <time>2009-08-14T13:39:18Z</time>
      </trkpt>
      <trkpt lat="44.11201" lon="6.57929">
        <ele>1123.437988</ele>
        <time>2009-08-14T13:39:23Z</time>
      </trkpt>
      <trkpt lat="44.11174" lon="6.57928">
        <ele>1122.476563</ele>
        <time>2009-08-14T13:39:28Z</time>
      </trkpt>
      <trkpt lat="44.11145" lon="6.57924">
        <ele>1121.99585</ele>
        <time>2009-08-14T13:39:33Z</time>
      </trkpt>
      <trkpt lat="44.11115" lon="6.57916">
        <ele>1121.515137</ele>
        <time>2009-08-14T13:39:38Z</time>
      </trkpt>
      <trkpt lat="44.11085" lon="6.57902">
        <ele>1121.515137</ele>
        <time>2009-08-14T13:39:43Z</time>
      </trkpt>
      <trkpt lat="44.11056" lon="6.57884">
        <ele>1121.034668</ele>
        <time>2009-08-14T13:39:48Z</time>
      </trkpt>
      <trkpt lat="44.11028" lon="6.5786">
        <ele>1120.553955</ele>
        <time>2009-08-14T13:39:53Z</time>
      </trkpt>
      <trkpt lat="44.11001" lon="6.57834">
        <ele>1120.073242</ele>
        <time>2009-08-14T13:39:58Z</time>
      </trkpt>
      <trkpt lat="44.10977" lon="6.57802">
        <ele>1120.073242</ele>
        <time>2009-08-14T13:40:03Z</time>
      </trkpt>
      <trkpt lat="44.10956" lon="6.57765">
        <ele>1119.112061</ele>
        <time>2009-08-14T13:40:08Z</time>
      </trkpt>
      <trkpt lat="44.10935" lon="6.57728">
        <ele>1118.631348</ele>
        <time>2009-08-14T13:40:13Z</time>
      </trkpt>
      <trkpt lat="44.10915" lon="6.57691">
        <ele>1117.669922</ele>
        <time>2009-08-14T13:40:18Z</time>
      </trkpt>
      <trkpt lat="44.10898" lon="6.57662">
        <ele>1117.669922</ele>
        <time>2009-08-14T13:40:22Z</time>
      </trkpt>
      <trkpt lat="44.1088" lon="6.57632">
        <ele>1117.669922</ele>
        <time>2009-08-14T13:40:26Z</time>
      </trkpt>
      <trkpt lat="44.10863" lon="6.57602">
        <ele>1117.669922</ele>
        <time>2009-08-14T13:40:30Z</time>
      </trkpt>
      <trkpt lat="44.10846" lon="6.57572">
        <ele>1116.70874</ele>
        <time>2009-08-14T13:40:34Z</time>
      </trkpt>
      <trkpt lat="44.10829" lon="6.57543">
        <ele>1117.189453</ele>
        <time>2009-08-14T13:40:38Z</time>
      </trkpt>
      <trkpt lat="44.10807" lon="6.57509">
        <ele>1116.228027</ele>
        <time>2009-08-14T13:40:43Z</time>
      </trkpt>
      <trkpt lat="44.10784" lon="6.57475">
        <ele>1114.785889</ele>
        <time>2009-08-14T13:40:48Z</time>
      </trkpt>
      <trkpt lat="44.10762" lon="6.57441">
        <ele>1114.305176</ele>
        <time>2009-08-14T13:40:53Z</time>
      </trkpt>
      <trkpt lat="44.10743" lon="6.57415">
        <ele>1114.305176</ele>
        <time>2009-08-14T13:40:57Z</time>
      </trkpt>
      <trkpt lat="44.1072" lon="6.57382">
        <ele>1113.824463</ele>
        <time>2009-08-14T13:41:02Z</time>
      </trkpt>
      <trkpt lat="44.10695" lon="6.5735">
        <ele>1113.343994</ele>
        <time>2009-08-14T13:41:07Z</time>
      </trkpt>
      <trkpt lat="44.1067" lon="6.57319">
        <ele>1112.863281</ele>
        <time>2009-08-14T13:41:12Z</time>
      </trkpt>
      <trkpt lat="44.10646" lon="6.5729">
        <ele>1113.343994</ele>
        <time>2009-08-14T13:41:17Z</time>
      </trkpt>
      <trkpt lat="44.10622" lon="6.57264">
        <ele>1113.343994</ele>
        <time>2009-08-14T13:41:22Z</time>
      </trkpt>
      <trkpt lat="44.10597" lon="6.57238">
        <ele>1113.343994</ele>
        <time>2009-08-14T13:41:27Z</time>
      </trkpt>
      <trkpt lat="44.10573" lon="6.57214">
        <ele>1113.824463</ele>
        <time>2009-08-14T13:41:32Z</time>
      </trkpt>
      <trkpt lat="44.1055" lon="6.57189">
        <ele>1113.343994</ele>
        <time>2009-08-14T13:41:37Z</time>
      </trkpt>
      <trkpt lat="44.10526" lon="6.57164">
        <ele>1113.824463</ele>
        <time>2009-08-14T13:41:42Z</time>
      </trkpt>
      <trkpt lat="44.10503" lon="6.57139">
        <ele>1113.343994</ele>
        <time>2009-08-14T13:41:47Z</time>
      </trkpt>
      <trkpt lat="44.10479" lon="6.57113">
        <ele>1112.382568</ele>
        <time>2009-08-14T13:41:52Z</time>
      </trkpt>
      <trkpt lat="44.10457" lon="6.57085">
        <ele>1112.863281</ele>
        <time>2009-08-14T13:41:57Z</time>
      </trkpt>
      <trkpt lat="44.10436" lon="6.57057">
        <ele>1114.785889</ele>
        <time>2009-08-14T13:42:04Z</time>
      </trkpt>
      <trkpt lat="44.10417" lon="6.57028">
        <ele>1116.228027</ele>
        <time>2009-08-14T13:42:14Z</time>
      </trkpt>
      <trkpt lat="44.10399" lon="6.56999">
        <ele>1117.669922</ele>
        <time>2009-08-14T13:42:25Z</time>
      </trkpt>
      <trkpt lat="44.10384" lon="6.56966">
        <ele>1119.112061</ele>
        <time>2009-08-14T13:42:36Z</time>
      </trkpt>
      <trkpt lat="44.10369" lon="6.56932">
        <ele>1120.073242</ele>
        <time>2009-08-14T13:42:47Z</time>
      </trkpt>
      <trkpt lat="44.10347" lon="6.56908">
        <ele>1121.99585</ele>
        <time>2009-08-14T13:42:57Z</time>
      </trkpt>
      <trkpt lat="44.10326" lon="6.56882">
        <ele>1123.437988</ele>
        <time>2009-08-14T13:43:08Z</time>
      </trkpt>
      <trkpt lat="44.10304" lon="6.56855">
        <ele>1124.879883</ele>
        <time>2009-08-14T13:43:19Z</time>
      </trkpt>
      <trkpt lat="44.10284" lon="6.56827">
        <ele>1126.80249</ele>
        <time>2009-08-14T13:43:30Z</time>
      </trkpt>
      <trkpt lat="44.10267" lon="6.56797">
        <ele>1129.205566</ele>
        <time>2009-08-14T13:43:41Z</time>
      </trkpt>
      <trkpt lat="44.10247" lon="6.56768">
        <ele>1130.166992</ele>
        <time>2009-08-14T13:43:51Z</time>
      </trkpt>
      <trkpt lat="44.10226" lon="6.56739">
        <ele>1131.128418</ele>
        <time>2009-08-14T13:44:01Z</time>
      </trkpt>
      <trkpt lat="44.10206" lon="6.5671">
        <ele>1132.089844</ele>
        <time>2009-08-14T13:44:10Z</time>
      </trkpt>
      <trkpt lat="44.10184" lon="6.56681">
        <ele>1132.570557</ele>
        <time>2009-08-14T13:44:19Z</time>
      </trkpt>
      <trkpt lat="44.10162" lon="6.56654">
        <ele>1133.051025</ele>
        <time>2009-08-14T13:44:28Z</time>
      </trkpt>
      <trkpt lat="44.1014" lon="6.56626">
        <ele>1134.973877</ele>
        <time>2009-08-14T13:44:37Z</time>
      </trkpt>
      <trkpt lat="44.10119" lon="6.56599">
        <ele>1136.415771</ele>
        <time>2009-08-14T13:44:46Z</time>
      </trkpt>
      <trkpt lat="44.10101" lon="6.56565">
        <ele>1136.89624</ele>
        <time>2009-08-14T13:44:55Z</time>
      </trkpt>
      <trkpt lat="44.10079" lon="6.5654">
        <ele>1137.376953</ele>
        <time>2009-08-14T13:45:03Z</time>
      </trkpt>
      <trkpt lat="44.10056" lon="6.56516">
        <ele>1138.819092</ele>
        <time>2009-08-14T13:45:11Z</time>
      </trkpt>
      <trkpt lat="44.10034" lon="6.56487">
        <ele>1140.260986</ele>
        <time>2009-08-14T13:45:19Z</time>
      </trkpt>
      <trkpt lat="44.10017" lon="6.56451">
        <ele>1140.260986</ele>
        <time>2009-08-14T13:45:27Z</time>
      </trkpt>
      <trkpt lat="44.1" lon="6.56421">
        <ele>1140.741455</ele>
        <time>2009-08-14T13:45:34Z</time>
      </trkpt>
      <trkpt lat="44.09979" lon="6.56395">
        <ele>1142.183594</ele>
        <time>2009-08-14T13:45:41Z</time>
      </trkpt>
      <trkpt lat="44.09956" lon="6.56373">
        <ele>1142.664307</ele>
        <time>2009-08-14T13:45:48Z</time>
      </trkpt>
      <trkpt lat="44.0993" lon="6.56349">
        <ele>1142.183594</ele>
        <time>2009-08-14T13:45:55Z</time>
      </trkpt>
      <trkpt lat="44.09904" lon="6.56327">
        <ele>1141.702881</ele>
        <time>2009-08-14T13:46:01Z</time>
      </trkpt>
      <trkpt lat="44.09879" lon="6.56304">
        <ele>1141.702881</ele>
        <time>2009-08-14T13:46:07Z</time>
      </trkpt>
      <trkpt lat="44.09855" lon="6.56281">
        <ele>1140.741455</ele>
        <time>2009-08-14T13:46:13Z</time>
      </trkpt>
      <trkpt lat="44.09833" lon="6.56257">
        <ele>1141.702881</ele>
        <time>2009-08-14T13:46:19Z</time>
      </trkpt>
      <trkpt lat="44.09809" lon="6.56231">
        <ele>1142.664307</ele>
        <time>2009-08-14T13:46:25Z</time>
      </trkpt>
      <trkpt lat="44.0979" lon="6.56203">
        <ele>1142.183594</ele>
        <time>2009-08-14T13:46:30Z</time>
      </trkpt>
      <trkpt lat="44.09772" lon="6.56172">
        <ele>1141.702881</ele>
        <time>2009-08-14T13:46:35Z</time>
      </trkpt>
      <trkpt lat="44.09752" lon="6.5614">
        <ele>1141.222168</ele>
        <time>2009-08-14T13:46:40Z</time>
      </trkpt>
      <trkpt lat="44.09733" lon="6.56107">
        <ele>1140.260986</ele>
        <time>2009-08-14T13:46:45Z</time>
      </trkpt>
      <trkpt lat="44.09714" lon="6.56079">
        <ele>1140.741455</ele>
        <time>2009-08-14T13:46:50Z</time>
      </trkpt>
      <trkpt lat="44.09699" lon="6.56048">
        <ele>1139.780273</ele>
        <time>2009-08-14T13:46:55Z</time>
      </trkpt>
      <trkpt lat="44.09687" lon="6.56011">
        <ele>1139.780273</ele>
        <time>2009-08-14T13:47:00Z</time>
      </trkpt>
      <trkpt lat="44.09682" lon="6.55974">
        <ele>1140.260986</ele>
        <time>2009-08-14T13:47:05Z</time>
      </trkpt>
      <trkpt lat="44.09685" lon="6.55935">
        <ele>1142.664307</ele>
        <time>2009-08-14T13:47:13Z</time>
      </trkpt>
      <trkpt lat="44.0969" lon="6.55896">
        <ele>1143.625488</ele>
        <time>2009-08-14T13:47:23Z</time>
      </trkpt>
      <trkpt lat="44.09694" lon="6.55857">
        <ele>1145.548096</ele>
        <time>2009-08-14T13:47:32Z</time>
      </trkpt>
      <trkpt lat="44.09698" lon="6.55819">
        <ele>1148.432129</ele>
        <time>2009-08-14T13:47:41Z</time>
      </trkpt>
      <trkpt lat="44.097" lon="6.55781">
        <ele>1150.835449</ele>
        <time>2009-08-14T13:47:50Z</time>
      </trkpt>
      <trkpt lat="44.09699" lon="6.55743">
        <ele>1152.277344</ele>
        <time>2009-08-14T13:47:59Z</time>
      </trkpt>
      <trkpt lat="44.09698" lon="6.55703">
        <ele>1154.200195</ele>
        <time>2009-08-14T13:48:08Z</time>
      </trkpt>
      <trkpt lat="44.09698" lon="6.55664">
        <ele>1156.122559</ele>
        <time>2009-08-14T13:48:17Z</time>
      </trkpt>
      <trkpt lat="44.09697" lon="6.55626">
        <ele>1157.564697</ele>
        <time>2009-08-14T13:48:26Z</time>
      </trkpt>
      <trkpt lat="44.0969" lon="6.55589">
        <ele>1158.525879</ele>
        <time>2009-08-14T13:48:38Z</time>
      </trkpt>
      <trkpt lat="44.09679" lon="6.55557">
        <ele>1159.967773</ele>
        <time>2009-08-14T13:48:51Z</time>
      </trkpt>
      <trkpt lat="44.09663" lon="6.55529">
        <ele>1159.487305</ele>
        <time>2009-08-14T13:49:01Z</time>
      </trkpt>
      <trkpt lat="44.09658" lon="6.55497">
        <ele>1160.448486</ele>
        <time>2009-08-14T13:49:09Z</time>
      </trkpt>
      <trkpt lat="44.09668" lon="6.55465">
        <ele>1162.371094</ele>
        <time>2009-08-14T13:49:18Z</time>
      </trkpt>
      <trkpt lat="44.09683" lon="6.55461">
        <ele>1164.293945</ele>
        <time>2009-08-14T13:49:29Z</time>
      </trkpt>
      <trkpt lat="44.09692" lon="6.55486">
        <ele>1165.255371</ele>
        <time>2009-08-14T13:50:10Z</time>
      </trkpt>
    </trkseg>
  </trk>
</gpx>